<?xml version="1.0" encoding="UTF-8"?>
<gpx xmlns="http://www.topografix.com/GPX/1/1"
     creator="GpsDumpMac 0.27"
     version="1.1"
     xmlns:xsi="http://www.w3.org/2001/XMLSchema-instance"
     xsi:schemaLocation="http://www.topografix.com/GPX/1/1 http://www.topografix.com/GPX/1/1/gpx.xsd">
  <metadata>
    <link href="http://www.gethome.no/stein.sorensen/">
      <text>GPS dump for www.flightlog.org</text>
    </link>
    <time>2013-04-13T23:29:40Z</time>
    <bounds minlat="42.752483" minlon="-2.365900" maxlat="42.787217" maxlon="-2.207817"/>
  </metadata>
  <trk>
    <name>Track 001</name>
    <trkseg>
      <trkpt lat="42.782917" lon="-2.212083">
        <ele>966.0</ele>
        <time>2013-04-13T12:30:46Z</time>
      </trkpt>
      <trkpt lat="42.782933" lon="-2.212100">
        <ele>964.0</ele>
        <time>2013-04-13T12:30:56Z</time>
      </trkpt>
      <trkpt lat="42.782933" lon="-2.212100">
        <ele>963.0</ele>
        <time>2013-04-13T12:31:06Z</time>
      </trkpt>
      <trkpt lat="42.782950" lon="-2.212100">
        <ele>963.0</ele>
        <time>2013-04-13T12:31:16Z</time>
      </trkpt>
      <trkpt lat="42.782950" lon="-2.212117">
        <ele>963.0</ele>
        <time>2013-04-13T12:31:26Z</time>
      </trkpt>
      <trkpt lat="42.782933" lon="-2.212133">
        <ele>962.0</ele>
        <time>2013-04-13T12:31:36Z</time>
      </trkpt>
      <trkpt lat="42.782933" lon="-2.212133">
        <ele>961.0</ele>
        <time>2013-04-13T12:31:46Z</time>
      </trkpt>
      <trkpt lat="42.782950" lon="-2.212150">
        <ele>960.0</ele>
        <time>2013-04-13T12:31:56Z</time>
      </trkpt>
      <trkpt lat="42.782967" lon="-2.212150">
        <ele>960.0</ele>
        <time>2013-04-13T12:32:06Z</time>
      </trkpt>
      <trkpt lat="42.782983" lon="-2.212150">
        <ele>960.0</ele>
        <time>2013-04-13T12:32:16Z</time>
      </trkpt>
      <trkpt lat="42.782967" lon="-2.212150">
        <ele>960.0</ele>
        <time>2013-04-13T12:32:26Z</time>
      </trkpt>
      <trkpt lat="42.782967" lon="-2.212150">
        <ele>960.0</ele>
        <time>2013-04-13T12:32:36Z</time>
      </trkpt>
      <trkpt lat="42.782967" lon="-2.212150">
        <ele>959.0</ele>
        <time>2013-04-13T12:32:46Z</time>
      </trkpt>
      <trkpt lat="42.782967" lon="-2.212150">
        <ele>959.0</ele>
        <time>2013-04-13T12:32:56Z</time>
      </trkpt>
      <trkpt lat="42.782933" lon="-2.212167">
        <ele>959.0</ele>
        <time>2013-04-13T12:33:06Z</time>
      </trkpt>
      <trkpt lat="42.782950" lon="-2.212167">
        <ele>959.0</ele>
        <time>2013-04-13T12:33:16Z</time>
      </trkpt>
      <trkpt lat="42.782950" lon="-2.212167">
        <ele>959.0</ele>
        <time>2013-04-13T12:33:26Z</time>
      </trkpt>
      <trkpt lat="42.783000" lon="-2.212183">
        <ele>959.0</ele>
        <time>2013-04-13T12:33:36Z</time>
      </trkpt>
      <trkpt lat="42.783000" lon="-2.212183">
        <ele>959.0</ele>
        <time>2013-04-13T12:33:46Z</time>
      </trkpt>
      <trkpt lat="42.782933" lon="-2.212150">
        <ele>959.0</ele>
        <time>2013-04-13T12:33:56Z</time>
      </trkpt>
      <trkpt lat="42.782883" lon="-2.212067">
        <ele>959.0</ele>
        <time>2013-04-13T12:34:06Z</time>
      </trkpt>
      <trkpt lat="42.782883" lon="-2.212050">
        <ele>958.0</ele>
        <time>2013-04-13T12:34:16Z</time>
      </trkpt>
      <trkpt lat="42.782633" lon="-2.212117">
        <ele>958.0</ele>
        <time>2013-04-13T12:34:26Z</time>
      </trkpt>
      <trkpt lat="42.782350" lon="-2.212250">
        <ele>958.0</ele>
        <time>2013-04-13T12:34:36Z</time>
      </trkpt>
      <trkpt lat="42.782150" lon="-2.212217">
        <ele>961.0</ele>
        <time>2013-04-13T12:34:45Z</time>
      </trkpt>
      <trkpt lat="42.782133" lon="-2.212200">
        <ele>961.0</ele>
        <time>2013-04-13T12:34:46Z</time>
      </trkpt>
      <trkpt lat="42.781983" lon="-2.211950">
        <ele>966.0</ele>
        <time>2013-04-13T12:34:56Z</time>
      </trkpt>
      <trkpt lat="42.781800" lon="-2.211700">
        <ele>973.0</ele>
        <time>2013-04-13T12:35:06Z</time>
      </trkpt>
      <trkpt lat="42.781600" lon="-2.211367">
        <ele>979.0</ele>
        <time>2013-04-13T12:35:16Z</time>
      </trkpt>
      <trkpt lat="42.781467" lon="-2.211167">
        <ele>985.0</ele>
        <time>2013-04-13T12:35:26Z</time>
      </trkpt>
      <trkpt lat="42.781367" lon="-2.210917">
        <ele>991.0</ele>
        <time>2013-04-13T12:35:36Z</time>
      </trkpt>
      <trkpt lat="42.781083" lon="-2.210683">
        <ele>997.0</ele>
        <time>2013-04-13T12:35:46Z</time>
      </trkpt>
      <trkpt lat="42.780883" lon="-2.210467">
        <ele>1002.0</ele>
        <time>2013-04-13T12:35:56Z</time>
      </trkpt>
      <trkpt lat="42.780750" lon="-2.210200">
        <ele>1006.0</ele>
        <time>2013-04-13T12:36:06Z</time>
      </trkpt>
      <trkpt lat="42.780733" lon="-2.209883">
        <ele>1009.0</ele>
        <time>2013-04-13T12:36:16Z</time>
      </trkpt>
      <trkpt lat="42.780717" lon="-2.209500">
        <ele>1012.0</ele>
        <time>2013-04-13T12:36:26Z</time>
      </trkpt>
      <trkpt lat="42.780600" lon="-2.209200">
        <ele>1015.0</ele>
        <time>2013-04-13T12:36:36Z</time>
      </trkpt>
      <trkpt lat="42.780400" lon="-2.209067">
        <ele>1016.0</ele>
        <time>2013-04-13T12:36:46Z</time>
      </trkpt>
      <trkpt lat="42.780267" lon="-2.209067">
        <ele>1014.0</ele>
        <time>2013-04-13T12:36:56Z</time>
      </trkpt>
      <trkpt lat="42.780100" lon="-2.208883">
        <ele>1010.0</ele>
        <time>2013-04-13T12:37:07Z</time>
      </trkpt>
      <trkpt lat="42.780250" lon="-2.208750">
        <ele>1004.0</ele>
        <time>2013-04-13T12:37:17Z</time>
      </trkpt>
      <trkpt lat="42.781033" lon="-2.208767">
        <ele>997.0</ele>
        <time>2013-04-13T12:37:27Z</time>
      </trkpt>
      <trkpt lat="42.780983" lon="-2.208667">
        <ele>993.0</ele>
        <time>2013-04-13T12:37:37Z</time>
      </trkpt>
      <trkpt lat="42.781400" lon="-2.209933">
        <ele>987.0</ele>
        <time>2013-04-13T12:37:47Z</time>
      </trkpt>
      <trkpt lat="42.781467" lon="-2.210983">
        <ele>985.0</ele>
        <time>2013-04-13T12:37:57Z</time>
      </trkpt>
      <trkpt lat="42.781533" lon="-2.210667">
        <ele>986.0</ele>
        <time>2013-04-13T12:38:07Z</time>
      </trkpt>
      <trkpt lat="42.781750" lon="-2.210000">
        <ele>986.0</ele>
        <time>2013-04-13T12:38:17Z</time>
      </trkpt>
      <trkpt lat="42.781667" lon="-2.209383">
        <ele>986.0</ele>
        <time>2013-04-13T12:38:27Z</time>
      </trkpt>
      <trkpt lat="42.781483" lon="-2.209200">
        <ele>986.0</ele>
        <time>2013-04-13T12:38:37Z</time>
      </trkpt>
      <trkpt lat="42.781283" lon="-2.209183">
        <ele>988.0</ele>
        <time>2013-04-13T12:38:47Z</time>
      </trkpt>
      <trkpt lat="42.781067" lon="-2.209167">
        <ele>991.0</ele>
        <time>2013-04-13T12:38:57Z</time>
      </trkpt>
      <trkpt lat="42.781767" lon="-2.209633">
        <ele>999.0</ele>
        <time>2013-04-13T12:39:07Z</time>
      </trkpt>
      <trkpt lat="42.781550" lon="-2.210000">
        <ele>1004.0</ele>
        <time>2013-04-13T12:39:17Z</time>
      </trkpt>
      <trkpt lat="42.781433" lon="-2.209750">
        <ele>1011.0</ele>
        <time>2013-04-13T12:39:27Z</time>
      </trkpt>
      <trkpt lat="42.781317" lon="-2.209550">
        <ele>1017.0</ele>
        <time>2013-04-13T12:39:37Z</time>
      </trkpt>
      <trkpt lat="42.781150" lon="-2.209367">
        <ele>1023.0</ele>
        <time>2013-04-13T12:39:47Z</time>
      </trkpt>
      <trkpt lat="42.781017" lon="-2.209100">
        <ele>1027.0</ele>
        <time>2013-04-13T12:39:57Z</time>
      </trkpt>
      <trkpt lat="42.780833" lon="-2.208867">
        <ele>1031.0</ele>
        <time>2013-04-13T12:40:07Z</time>
      </trkpt>
      <trkpt lat="42.780783" lon="-2.208700">
        <ele>1036.0</ele>
        <time>2013-04-13T12:40:17Z</time>
      </trkpt>
      <trkpt lat="42.780667" lon="-2.208333">
        <ele>1041.0</ele>
        <time>2013-04-13T12:40:27Z</time>
      </trkpt>
      <trkpt lat="42.780883" lon="-2.208867">
        <ele>1051.0</ele>
        <time>2013-04-13T12:40:37Z</time>
      </trkpt>
      <trkpt lat="42.781383" lon="-2.208517">
        <ele>1060.0</ele>
        <time>2013-04-13T12:40:47Z</time>
      </trkpt>
      <trkpt lat="42.781100" lon="-2.208183">
        <ele>1064.0</ele>
        <time>2013-04-13T12:40:57Z</time>
      </trkpt>
      <trkpt lat="42.780700" lon="-2.208067">
        <ele>1068.0</ele>
        <time>2013-04-13T12:41:07Z</time>
      </trkpt>
      <trkpt lat="42.780267" lon="-2.208100">
        <ele>1071.0</ele>
        <time>2013-04-13T12:41:17Z</time>
      </trkpt>
      <trkpt lat="42.780000" lon="-2.208283">
        <ele>1073.0</ele>
        <time>2013-04-13T12:41:27Z</time>
      </trkpt>
      <trkpt lat="42.779750" lon="-2.208300">
        <ele>1074.0</ele>
        <time>2013-04-13T12:41:37Z</time>
      </trkpt>
      <trkpt lat="42.779500" lon="-2.208283">
        <ele>1074.0</ele>
        <time>2013-04-13T12:41:47Z</time>
      </trkpt>
      <trkpt lat="42.779100" lon="-2.208433">
        <ele>1072.0</ele>
        <time>2013-04-13T12:41:57Z</time>
      </trkpt>
      <trkpt lat="42.778750" lon="-2.208483">
        <ele>1072.0</ele>
        <time>2013-04-13T12:42:07Z</time>
      </trkpt>
      <trkpt lat="42.778533" lon="-2.208600">
        <ele>1075.0</ele>
        <time>2013-04-13T12:42:17Z</time>
      </trkpt>
      <trkpt lat="42.778317" lon="-2.208633">
        <ele>1081.0</ele>
        <time>2013-04-13T12:42:27Z</time>
      </trkpt>
      <trkpt lat="42.778250" lon="-2.208633">
        <ele>1090.0</ele>
        <time>2013-04-13T12:42:37Z</time>
      </trkpt>
      <trkpt lat="42.778200" lon="-2.208517">
        <ele>1100.0</ele>
        <time>2013-04-13T12:42:47Z</time>
      </trkpt>
      <trkpt lat="42.778083" lon="-2.208567">
        <ele>1110.0</ele>
        <time>2013-04-13T12:42:57Z</time>
      </trkpt>
      <trkpt lat="42.778117" lon="-2.208617">
        <ele>1119.0</ele>
        <time>2013-04-13T12:43:07Z</time>
      </trkpt>
      <trkpt lat="42.778083" lon="-2.208700">
        <ele>1125.0</ele>
        <time>2013-04-13T12:43:17Z</time>
      </trkpt>
      <trkpt lat="42.778017" lon="-2.208800">
        <ele>1131.0</ele>
        <time>2013-04-13T12:43:27Z</time>
      </trkpt>
      <trkpt lat="42.777933" lon="-2.208733">
        <ele>1136.0</ele>
        <time>2013-04-13T12:43:37Z</time>
      </trkpt>
      <trkpt lat="42.777883" lon="-2.208550">
        <ele>1141.0</ele>
        <time>2013-04-13T12:43:47Z</time>
      </trkpt>
      <trkpt lat="42.777717" lon="-2.208583">
        <ele>1145.0</ele>
        <time>2013-04-13T12:43:57Z</time>
      </trkpt>
      <trkpt lat="42.777667" lon="-2.208867">
        <ele>1150.0</ele>
        <time>2013-04-13T12:44:07Z</time>
      </trkpt>
      <trkpt lat="42.777783" lon="-2.208617">
        <ele>1157.0</ele>
        <time>2013-04-13T12:44:17Z</time>
      </trkpt>
      <trkpt lat="42.777900" lon="-2.208150">
        <ele>1164.0</ele>
        <time>2013-04-13T12:44:28Z</time>
      </trkpt>
      <trkpt lat="42.777650" lon="-2.208050">
        <ele>1170.0</ele>
        <time>2013-04-13T12:44:38Z</time>
      </trkpt>
      <trkpt lat="42.777233" lon="-2.207900">
        <ele>1176.0</ele>
        <time>2013-04-13T12:44:48Z</time>
      </trkpt>
      <trkpt lat="42.776967" lon="-2.207817">
        <ele>1181.0</ele>
        <time>2013-04-13T12:44:55Z</time>
      </trkpt>
      <trkpt lat="42.776933" lon="-2.207817">
        <ele>1182.0</ele>
        <time>2013-04-13T12:44:56Z</time>
      </trkpt>
      <trkpt lat="42.776600" lon="-2.207817">
        <ele>1191.0</ele>
        <time>2013-04-13T12:45:06Z</time>
      </trkpt>
      <trkpt lat="42.776917" lon="-2.208900">
        <ele>1199.0</ele>
        <time>2013-04-13T12:45:16Z</time>
      </trkpt>
      <trkpt lat="42.777183" lon="-2.210050">
        <ele>1209.0</ele>
        <time>2013-04-13T12:45:26Z</time>
      </trkpt>
      <trkpt lat="42.777683" lon="-2.209983">
        <ele>1220.0</ele>
        <time>2013-04-13T12:45:36Z</time>
      </trkpt>
      <trkpt lat="42.777400" lon="-2.210283">
        <ele>1231.0</ele>
        <time>2013-04-13T12:45:46Z</time>
      </trkpt>
      <trkpt lat="42.777400" lon="-2.211233">
        <ele>1248.0</ele>
        <time>2013-04-13T12:45:56Z</time>
      </trkpt>
      <trkpt lat="42.777617" lon="-2.212150">
        <ele>1258.0</ele>
        <time>2013-04-13T12:46:06Z</time>
      </trkpt>
      <trkpt lat="42.777633" lon="-2.213100">
        <ele>1265.0</ele>
        <time>2013-04-13T12:46:16Z</time>
      </trkpt>
      <trkpt lat="42.777833" lon="-2.214033">
        <ele>1270.0</ele>
        <time>2013-04-13T12:46:26Z</time>
      </trkpt>
      <trkpt lat="42.777950" lon="-2.215100">
        <ele>1277.0</ele>
        <time>2013-04-13T12:46:36Z</time>
      </trkpt>
      <trkpt lat="42.778483" lon="-2.215000">
        <ele>1289.0</ele>
        <time>2013-04-13T12:46:46Z</time>
      </trkpt>
      <trkpt lat="42.778183" lon="-2.215233">
        <ele>1300.0</ele>
        <time>2013-04-13T12:46:56Z</time>
      </trkpt>
      <trkpt lat="42.778200" lon="-2.216083">
        <ele>1318.0</ele>
        <time>2013-04-13T12:47:06Z</time>
      </trkpt>
      <trkpt lat="42.778350" lon="-2.217083">
        <ele>1335.0</ele>
        <time>2013-04-13T12:47:16Z</time>
      </trkpt>
      <trkpt lat="42.778400" lon="-2.218067">
        <ele>1352.0</ele>
        <time>2013-04-13T12:47:26Z</time>
      </trkpt>
      <trkpt lat="42.779217" lon="-2.218033">
        <ele>1372.0</ele>
        <time>2013-04-13T12:47:36Z</time>
      </trkpt>
      <trkpt lat="42.779017" lon="-2.217833">
        <ele>1389.0</ele>
        <time>2013-04-13T12:47:46Z</time>
      </trkpt>
      <trkpt lat="42.779033" lon="-2.218900">
        <ele>1411.0</ele>
        <time>2013-04-13T12:47:56Z</time>
      </trkpt>
      <trkpt lat="42.779117" lon="-2.219983">
        <ele>1420.0</ele>
        <time>2013-04-13T12:48:06Z</time>
      </trkpt>
      <trkpt lat="42.779150" lon="-2.221017">
        <ele>1419.0</ele>
        <time>2013-04-13T12:48:16Z</time>
      </trkpt>
      <trkpt lat="42.779200" lon="-2.222000">
        <ele>1416.0</ele>
        <time>2013-04-13T12:48:26Z</time>
      </trkpt>
      <trkpt lat="42.779183" lon="-2.223050">
        <ele>1416.0</ele>
        <time>2013-04-13T12:48:36Z</time>
      </trkpt>
      <trkpt lat="42.779067" lon="-2.223983">
        <ele>1417.0</ele>
        <time>2013-04-13T12:48:46Z</time>
      </trkpt>
      <trkpt lat="42.778867" lon="-2.224450">
        <ele>1424.0</ele>
        <time>2013-04-13T12:48:56Z</time>
      </trkpt>
      <trkpt lat="42.778683" lon="-2.224633">
        <ele>1432.0</ele>
        <time>2013-04-13T12:49:06Z</time>
      </trkpt>
      <trkpt lat="42.778483" lon="-2.225350">
        <ele>1445.0</ele>
        <time>2013-04-13T12:49:16Z</time>
      </trkpt>
      <trkpt lat="42.778333" lon="-2.226483">
        <ele>1453.0</ele>
        <time>2013-04-13T12:49:26Z</time>
      </trkpt>
      <trkpt lat="42.778167" lon="-2.227667">
        <ele>1453.0</ele>
        <time>2013-04-13T12:49:36Z</time>
      </trkpt>
      <trkpt lat="42.777900" lon="-2.228700">
        <ele>1451.0</ele>
        <time>2013-04-13T12:49:46Z</time>
      </trkpt>
      <trkpt lat="42.777433" lon="-2.228933">
        <ele>1449.0</ele>
        <time>2013-04-13T12:49:56Z</time>
      </trkpt>
      <trkpt lat="42.777050" lon="-2.228900">
        <ele>1445.0</ele>
        <time>2013-04-13T12:50:06Z</time>
      </trkpt>
      <trkpt lat="42.776700" lon="-2.228967">
        <ele>1440.0</ele>
        <time>2013-04-13T12:50:16Z</time>
      </trkpt>
      <trkpt lat="42.776633" lon="-2.229717">
        <ele>1425.0</ele>
        <time>2013-04-13T12:50:26Z</time>
      </trkpt>
      <trkpt lat="42.776983" lon="-2.230967">
        <ele>1409.0</ele>
        <time>2013-04-13T12:50:36Z</time>
      </trkpt>
      <trkpt lat="42.777333" lon="-2.232217">
        <ele>1392.0</ele>
        <time>2013-04-13T12:50:46Z</time>
      </trkpt>
      <trkpt lat="42.777683" lon="-2.233517">
        <ele>1375.0</ele>
        <time>2013-04-13T12:50:56Z</time>
      </trkpt>
      <trkpt lat="42.778100" lon="-2.234900">
        <ele>1358.0</ele>
        <time>2013-04-13T12:51:06Z</time>
      </trkpt>
      <trkpt lat="42.778383" lon="-2.236100">
        <ele>1342.0</ele>
        <time>2013-04-13T12:51:16Z</time>
      </trkpt>
      <trkpt lat="42.778750" lon="-2.237333">
        <ele>1326.0</ele>
        <time>2013-04-13T12:51:26Z</time>
      </trkpt>
      <trkpt lat="42.779083" lon="-2.238533">
        <ele>1306.0</ele>
        <time>2013-04-13T12:51:36Z</time>
      </trkpt>
      <trkpt lat="42.779300" lon="-2.239800">
        <ele>1284.0</ele>
        <time>2013-04-13T12:51:46Z</time>
      </trkpt>
      <trkpt lat="42.779600" lon="-2.241217">
        <ele>1270.0</ele>
        <time>2013-04-13T12:51:57Z</time>
      </trkpt>
      <trkpt lat="42.779500" lon="-2.242300">
        <ele>1268.0</ele>
        <time>2013-04-13T12:52:07Z</time>
      </trkpt>
      <trkpt lat="42.779350" lon="-2.241900">
        <ele>1273.0</ele>
        <time>2013-04-13T12:52:17Z</time>
      </trkpt>
      <trkpt lat="42.779917" lon="-2.242583">
        <ele>1286.0</ele>
        <time>2013-04-13T12:52:27Z</time>
      </trkpt>
      <trkpt lat="42.779700" lon="-2.243467">
        <ele>1305.0</ele>
        <time>2013-04-13T12:52:37Z</time>
      </trkpt>
      <trkpt lat="42.779867" lon="-2.243083">
        <ele>1322.0</ele>
        <time>2013-04-13T12:52:47Z</time>
      </trkpt>
      <trkpt lat="42.780283" lon="-2.244050">
        <ele>1346.0</ele>
        <time>2013-04-13T12:52:57Z</time>
      </trkpt>
      <trkpt lat="42.780367" lon="-2.245133">
        <ele>1364.0</ele>
        <time>2013-04-13T12:53:07Z</time>
      </trkpt>
      <trkpt lat="42.780633" lon="-2.246333">
        <ele>1376.0</ele>
        <time>2013-04-13T12:53:17Z</time>
      </trkpt>
      <trkpt lat="42.780767" lon="-2.247300">
        <ele>1388.0</ele>
        <time>2013-04-13T12:53:27Z</time>
      </trkpt>
      <trkpt lat="42.781083" lon="-2.247000">
        <ele>1398.0</ele>
        <time>2013-04-13T12:53:37Z</time>
      </trkpt>
      <trkpt lat="42.781750" lon="-2.248033">
        <ele>1412.0</ele>
        <time>2013-04-13T12:53:47Z</time>
      </trkpt>
      <trkpt lat="42.781833" lon="-2.249233">
        <ele>1426.0</ele>
        <time>2013-04-13T12:53:57Z</time>
      </trkpt>
      <trkpt lat="42.781950" lon="-2.250600">
        <ele>1432.0</ele>
        <time>2013-04-13T12:54:07Z</time>
      </trkpt>
      <trkpt lat="42.782167" lon="-2.252033">
        <ele>1429.0</ele>
        <time>2013-04-13T12:54:17Z</time>
      </trkpt>
      <trkpt lat="42.782467" lon="-2.253350">
        <ele>1415.0</ele>
        <time>2013-04-13T12:54:27Z</time>
      </trkpt>
      <trkpt lat="42.782983" lon="-2.254667">
        <ele>1397.0</ele>
        <time>2013-04-13T12:54:37Z</time>
      </trkpt>
      <trkpt lat="42.783517" lon="-2.256050">
        <ele>1373.0</ele>
        <time>2013-04-13T12:54:47Z</time>
      </trkpt>
      <trkpt lat="42.783833" lon="-2.257350">
        <ele>1349.0</ele>
        <time>2013-04-13T12:54:57Z</time>
      </trkpt>
      <trkpt lat="42.783950" lon="-2.258417">
        <ele>1330.0</ele>
        <time>2013-04-13T12:55:07Z</time>
      </trkpt>
      <trkpt lat="42.784133" lon="-2.259600">
        <ele>1311.0</ele>
        <time>2013-04-13T12:55:17Z</time>
      </trkpt>
      <trkpt lat="42.784317" lon="-2.260767">
        <ele>1291.0</ele>
        <time>2013-04-13T12:55:27Z</time>
      </trkpt>
      <trkpt lat="42.784350" lon="-2.261867">
        <ele>1269.0</ele>
        <time>2013-04-13T12:55:37Z</time>
      </trkpt>
      <trkpt lat="42.784500" lon="-2.262950">
        <ele>1247.0</ele>
        <time>2013-04-13T12:55:47Z</time>
      </trkpt>
      <trkpt lat="42.784733" lon="-2.264167">
        <ele>1224.0</ele>
        <time>2013-04-13T12:55:57Z</time>
      </trkpt>
      <trkpt lat="42.784967" lon="-2.265550">
        <ele>1200.0</ele>
        <time>2013-04-13T12:56:07Z</time>
      </trkpt>
      <trkpt lat="42.785017" lon="-2.266800">
        <ele>1174.0</ele>
        <time>2013-04-13T12:56:17Z</time>
      </trkpt>
      <trkpt lat="42.785650" lon="-2.268000">
        <ele>1148.0</ele>
        <time>2013-04-13T12:56:27Z</time>
      </trkpt>
      <trkpt lat="42.786567" lon="-2.269317">
        <ele>1128.0</ele>
        <time>2013-04-13T12:56:37Z</time>
      </trkpt>
      <trkpt lat="42.787100" lon="-2.270733">
        <ele>1115.0</ele>
        <time>2013-04-13T12:56:47Z</time>
      </trkpt>
      <trkpt lat="42.787100" lon="-2.272017">
        <ele>1106.0</ele>
        <time>2013-04-13T12:56:57Z</time>
      </trkpt>
      <trkpt lat="42.786883" lon="-2.273133">
        <ele>1098.0</ele>
        <time>2013-04-13T12:57:07Z</time>
      </trkpt>
      <trkpt lat="42.786617" lon="-2.274217">
        <ele>1093.0</ele>
        <time>2013-04-13T12:57:17Z</time>
      </trkpt>
      <trkpt lat="42.786317" lon="-2.274917">
        <ele>1093.0</ele>
        <time>2013-04-13T12:57:27Z</time>
      </trkpt>
      <trkpt lat="42.785950" lon="-2.275433">
        <ele>1094.0</ele>
        <time>2013-04-13T12:57:37Z</time>
      </trkpt>
      <trkpt lat="42.785550" lon="-2.275983">
        <ele>1097.0</ele>
        <time>2013-04-13T12:57:47Z</time>
      </trkpt>
      <trkpt lat="42.785267" lon="-2.276450">
        <ele>1100.0</ele>
        <time>2013-04-13T12:57:57Z</time>
      </trkpt>
      <trkpt lat="42.785067" lon="-2.276883">
        <ele>1102.0</ele>
        <time>2013-04-13T12:58:07Z</time>
      </trkpt>
      <trkpt lat="42.784817" lon="-2.277333">
        <ele>1101.0</ele>
        <time>2013-04-13T12:58:17Z</time>
      </trkpt>
      <trkpt lat="42.784617" lon="-2.277983">
        <ele>1098.0</ele>
        <time>2013-04-13T12:58:27Z</time>
      </trkpt>
      <trkpt lat="42.784333" lon="-2.278583">
        <ele>1098.0</ele>
        <time>2013-04-13T12:58:38Z</time>
      </trkpt>
      <trkpt lat="42.784083" lon="-2.278933">
        <ele>1105.0</ele>
        <time>2013-04-13T12:58:48Z</time>
      </trkpt>
      <trkpt lat="42.784250" lon="-2.278283">
        <ele>1122.0</ele>
        <time>2013-04-13T12:58:58Z</time>
      </trkpt>
      <trkpt lat="42.783867" lon="-2.278450">
        <ele>1133.0</ele>
        <time>2013-04-13T12:59:08Z</time>
      </trkpt>
      <trkpt lat="42.783500" lon="-2.279000">
        <ele>1138.0</ele>
        <time>2013-04-13T12:59:18Z</time>
      </trkpt>
      <trkpt lat="42.783250" lon="-2.279417">
        <ele>1137.0</ele>
        <time>2013-04-13T12:59:28Z</time>
      </trkpt>
      <trkpt lat="42.783117" lon="-2.279517">
        <ele>1136.0</ele>
        <time>2013-04-13T12:59:38Z</time>
      </trkpt>
      <trkpt lat="42.783783" lon="-2.278833">
        <ele>1133.0</ele>
        <time>2013-04-13T12:59:48Z</time>
      </trkpt>
      <trkpt lat="42.784567" lon="-2.278233">
        <ele>1128.0</ele>
        <time>2013-04-13T12:59:58Z</time>
      </trkpt>
      <trkpt lat="42.784517" lon="-2.278533">
        <ele>1123.0</ele>
        <time>2013-04-13T13:00:08Z</time>
      </trkpt>
      <trkpt lat="42.784433" lon="-2.279283">
        <ele>1117.0</ele>
        <time>2013-04-13T13:00:18Z</time>
      </trkpt>
      <trkpt lat="42.784233" lon="-2.280100">
        <ele>1114.0</ele>
        <time>2013-04-13T13:00:28Z</time>
      </trkpt>
      <trkpt lat="42.783967" lon="-2.280567">
        <ele>1111.0</ele>
        <time>2013-04-13T13:00:38Z</time>
      </trkpt>
      <trkpt lat="42.784383" lon="-2.280067">
        <ele>1108.0</ele>
        <time>2013-04-13T13:00:48Z</time>
      </trkpt>
      <trkpt lat="42.784917" lon="-2.279417">
        <ele>1104.0</ele>
        <time>2013-04-13T13:00:58Z</time>
      </trkpt>
      <trkpt lat="42.784800" lon="-2.279383">
        <ele>1101.0</ele>
        <time>2013-04-13T13:01:08Z</time>
      </trkpt>
      <trkpt lat="42.784450" lon="-2.279800">
        <ele>1095.0</ele>
        <time>2013-04-13T13:01:18Z</time>
      </trkpt>
      <trkpt lat="42.784033" lon="-2.280433">
        <ele>1089.0</ele>
        <time>2013-04-13T13:01:28Z</time>
      </trkpt>
      <trkpt lat="42.783617" lon="-2.281183">
        <ele>1088.0</ele>
        <time>2013-04-13T13:01:38Z</time>
      </trkpt>
      <trkpt lat="42.783367" lon="-2.281833">
        <ele>1094.0</ele>
        <time>2013-04-13T13:01:48Z</time>
      </trkpt>
      <trkpt lat="42.783567" lon="-2.281367">
        <ele>1100.0</ele>
        <time>2013-04-13T13:01:58Z</time>
      </trkpt>
      <trkpt lat="42.783517" lon="-2.281433">
        <ele>1107.0</ele>
        <time>2013-04-13T13:02:08Z</time>
      </trkpt>
      <trkpt lat="42.783433" lon="-2.282550">
        <ele>1112.0</ele>
        <time>2013-04-13T13:02:18Z</time>
      </trkpt>
      <trkpt lat="42.783183" lon="-2.282567">
        <ele>1111.0</ele>
        <time>2013-04-13T13:02:28Z</time>
      </trkpt>
      <trkpt lat="42.783267" lon="-2.281983">
        <ele>1108.0</ele>
        <time>2013-04-13T13:02:38Z</time>
      </trkpt>
      <trkpt lat="42.783517" lon="-2.281200">
        <ele>1104.0</ele>
        <time>2013-04-13T13:02:48Z</time>
      </trkpt>
      <trkpt lat="42.783633" lon="-2.280433">
        <ele>1103.0</ele>
        <time>2013-04-13T13:02:58Z</time>
      </trkpt>
      <trkpt lat="42.783550" lon="-2.279717">
        <ele>1098.0</ele>
        <time>2013-04-13T13:03:08Z</time>
      </trkpt>
      <trkpt lat="42.783633" lon="-2.278867">
        <ele>1093.0</ele>
        <time>2013-04-13T13:03:18Z</time>
      </trkpt>
      <trkpt lat="42.783667" lon="-2.278283">
        <ele>1090.0</ele>
        <time>2013-04-13T13:03:28Z</time>
      </trkpt>
      <trkpt lat="42.783733" lon="-2.278617">
        <ele>1090.0</ele>
        <time>2013-04-13T13:03:38Z</time>
      </trkpt>
      <trkpt lat="42.784383" lon="-2.278167">
        <ele>1092.0</ele>
        <time>2013-04-13T13:03:48Z</time>
      </trkpt>
      <trkpt lat="42.784317" lon="-2.277717">
        <ele>1096.0</ele>
        <time>2013-04-13T13:03:58Z</time>
      </trkpt>
      <trkpt lat="42.784683" lon="-2.278483">
        <ele>1111.0</ele>
        <time>2013-04-13T13:04:08Z</time>
      </trkpt>
      <trkpt lat="42.784967" lon="-2.278083">
        <ele>1125.0</ele>
        <time>2013-04-13T13:04:18Z</time>
      </trkpt>
      <trkpt lat="42.784817" lon="-2.278167">
        <ele>1141.0</ele>
        <time>2013-04-13T13:04:28Z</time>
      </trkpt>
      <trkpt lat="42.785483" lon="-2.278750">
        <ele>1166.0</ele>
        <time>2013-04-13T13:04:38Z</time>
      </trkpt>
      <trkpt lat="42.785550" lon="-2.278683">
        <ele>1180.0</ele>
        <time>2013-04-13T13:04:48Z</time>
      </trkpt>
      <trkpt lat="42.785300" lon="-2.278717">
        <ele>1197.0</ele>
        <time>2013-04-13T13:04:58Z</time>
      </trkpt>
      <trkpt lat="42.785200" lon="-2.279117">
        <ele>1220.0</ele>
        <time>2013-04-13T13:05:08Z</time>
      </trkpt>
      <trkpt lat="42.785917" lon="-2.278967">
        <ele>1243.0</ele>
        <time>2013-04-13T13:05:18Z</time>
      </trkpt>
      <trkpt lat="42.785633" lon="-2.278867">
        <ele>1255.0</ele>
        <time>2013-04-13T13:05:28Z</time>
      </trkpt>
      <trkpt lat="42.785333" lon="-2.278900">
        <ele>1268.0</ele>
        <time>2013-04-13T13:05:38Z</time>
      </trkpt>
      <trkpt lat="42.785017" lon="-2.279000">
        <ele>1278.0</ele>
        <time>2013-04-13T13:05:48Z</time>
      </trkpt>
      <trkpt lat="42.784750" lon="-2.279283">
        <ele>1282.0</ele>
        <time>2013-04-13T13:05:58Z</time>
      </trkpt>
      <trkpt lat="42.784417" lon="-2.279633">
        <ele>1283.0</ele>
        <time>2013-04-13T13:06:09Z</time>
      </trkpt>
      <trkpt lat="42.784117" lon="-2.280000">
        <ele>1279.0</ele>
        <time>2013-04-13T13:06:19Z</time>
      </trkpt>
      <trkpt lat="42.783867" lon="-2.280267">
        <ele>1273.0</ele>
        <time>2013-04-13T13:06:29Z</time>
      </trkpt>
      <trkpt lat="42.783567" lon="-2.280550">
        <ele>1266.0</ele>
        <time>2013-04-13T13:06:39Z</time>
      </trkpt>
      <trkpt lat="42.783217" lon="-2.280900">
        <ele>1258.0</ele>
        <time>2013-04-13T13:06:49Z</time>
      </trkpt>
      <trkpt lat="42.782900" lon="-2.281417">
        <ele>1247.0</ele>
        <time>2013-04-13T13:06:59Z</time>
      </trkpt>
      <trkpt lat="42.782550" lon="-2.281883">
        <ele>1243.0</ele>
        <time>2013-04-13T13:07:09Z</time>
      </trkpt>
      <trkpt lat="42.782033" lon="-2.281967">
        <ele>1244.0</ele>
        <time>2013-04-13T13:07:19Z</time>
      </trkpt>
      <trkpt lat="42.781500" lon="-2.281967">
        <ele>1249.0</ele>
        <time>2013-04-13T13:07:29Z</time>
      </trkpt>
      <trkpt lat="42.781067" lon="-2.281883">
        <ele>1252.0</ele>
        <time>2013-04-13T13:07:39Z</time>
      </trkpt>
      <trkpt lat="42.780600" lon="-2.281900">
        <ele>1255.0</ele>
        <time>2013-04-13T13:07:49Z</time>
      </trkpt>
      <trkpt lat="42.780133" lon="-2.281950">
        <ele>1255.0</ele>
        <time>2013-04-13T13:07:59Z</time>
      </trkpt>
      <trkpt lat="42.779683" lon="-2.282000">
        <ele>1252.0</ele>
        <time>2013-04-13T13:08:09Z</time>
      </trkpt>
      <trkpt lat="42.779283" lon="-2.281967">
        <ele>1248.0</ele>
        <time>2013-04-13T13:08:19Z</time>
      </trkpt>
      <trkpt lat="42.778900" lon="-2.282000">
        <ele>1242.0</ele>
        <time>2013-04-13T13:08:29Z</time>
      </trkpt>
      <trkpt lat="42.778533" lon="-2.281983">
        <ele>1238.0</ele>
        <time>2013-04-13T13:08:39Z</time>
      </trkpt>
      <trkpt lat="42.778183" lon="-2.282017">
        <ele>1234.0</ele>
        <time>2013-04-13T13:08:49Z</time>
      </trkpt>
      <trkpt lat="42.777717" lon="-2.282033">
        <ele>1228.0</ele>
        <time>2013-04-13T13:08:59Z</time>
      </trkpt>
      <trkpt lat="42.777167" lon="-2.282017">
        <ele>1218.0</ele>
        <time>2013-04-13T13:09:09Z</time>
      </trkpt>
      <trkpt lat="42.776650" lon="-2.281900">
        <ele>1208.0</ele>
        <time>2013-04-13T13:09:19Z</time>
      </trkpt>
      <trkpt lat="42.776283" lon="-2.281783">
        <ele>1202.0</ele>
        <time>2013-04-13T13:09:29Z</time>
      </trkpt>
      <trkpt lat="42.776067" lon="-2.281617">
        <ele>1195.0</ele>
        <time>2013-04-13T13:09:39Z</time>
      </trkpt>
      <trkpt lat="42.775850" lon="-2.281300">
        <ele>1188.0</ele>
        <time>2013-04-13T13:09:49Z</time>
      </trkpt>
      <trkpt lat="42.776517" lon="-2.280733">
        <ele>1174.0</ele>
        <time>2013-04-13T13:09:59Z</time>
      </trkpt>
      <trkpt lat="42.777750" lon="-2.280867">
        <ele>1161.0</ele>
        <time>2013-04-13T13:10:09Z</time>
      </trkpt>
      <trkpt lat="42.778950" lon="-2.281367">
        <ele>1148.0</ele>
        <time>2013-04-13T13:10:19Z</time>
      </trkpt>
      <trkpt lat="42.780067" lon="-2.282083">
        <ele>1134.0</ele>
        <time>2013-04-13T13:10:29Z</time>
      </trkpt>
      <trkpt lat="42.781133" lon="-2.282667">
        <ele>1121.0</ele>
        <time>2013-04-13T13:10:39Z</time>
      </trkpt>
      <trkpt lat="42.781917" lon="-2.282550">
        <ele>1111.0</ele>
        <time>2013-04-13T13:10:49Z</time>
      </trkpt>
      <trkpt lat="42.782450" lon="-2.282117">
        <ele>1100.0</ele>
        <time>2013-04-13T13:10:59Z</time>
      </trkpt>
      <trkpt lat="42.782817" lon="-2.281633">
        <ele>1093.0</ele>
        <time>2013-04-13T13:11:09Z</time>
      </trkpt>
      <trkpt lat="42.783000" lon="-2.281117">
        <ele>1088.0</ele>
        <time>2013-04-13T13:11:19Z</time>
      </trkpt>
      <trkpt lat="42.783067" lon="-2.280700">
        <ele>1083.0</ele>
        <time>2013-04-13T13:11:29Z</time>
      </trkpt>
      <trkpt lat="42.783167" lon="-2.280200">
        <ele>1078.0</ele>
        <time>2013-04-13T13:11:39Z</time>
      </trkpt>
      <trkpt lat="42.783383" lon="-2.280767">
        <ele>1073.0</ele>
        <time>2013-04-13T13:11:49Z</time>
      </trkpt>
      <trkpt lat="42.783967" lon="-2.280283">
        <ele>1068.0</ele>
        <time>2013-04-13T13:11:59Z</time>
      </trkpt>
      <trkpt lat="42.783883" lon="-2.279750">
        <ele>1067.0</ele>
        <time>2013-04-13T13:12:09Z</time>
      </trkpt>
      <trkpt lat="42.783600" lon="-2.279533">
        <ele>1069.0</ele>
        <time>2013-04-13T13:12:19Z</time>
      </trkpt>
      <trkpt lat="42.783717" lon="-2.280050">
        <ele>1078.0</ele>
        <time>2013-04-13T13:12:29Z</time>
      </trkpt>
      <trkpt lat="42.784400" lon="-2.279817">
        <ele>1092.0</ele>
        <time>2013-04-13T13:12:39Z</time>
      </trkpt>
      <trkpt lat="42.784050" lon="-2.279600">
        <ele>1102.0</ele>
        <time>2013-04-13T13:12:49Z</time>
      </trkpt>
      <trkpt lat="42.784333" lon="-2.280400">
        <ele>1116.0</ele>
        <time>2013-04-13T13:12:59Z</time>
      </trkpt>
      <trkpt lat="42.784750" lon="-2.280183">
        <ele>1123.0</ele>
        <time>2013-04-13T13:13:09Z</time>
      </trkpt>
      <trkpt lat="42.784500" lon="-2.280233">
        <ele>1127.0</ele>
        <time>2013-04-13T13:13:19Z</time>
      </trkpt>
      <trkpt lat="42.784183" lon="-2.280083">
        <ele>1132.0</ele>
        <time>2013-04-13T13:13:30Z</time>
      </trkpt>
      <trkpt lat="42.783900" lon="-2.279967">
        <ele>1136.0</ele>
        <time>2013-04-13T13:13:40Z</time>
      </trkpt>
      <trkpt lat="42.783883" lon="-2.280400">
        <ele>1144.0</ele>
        <time>2013-04-13T13:13:50Z</time>
      </trkpt>
      <trkpt lat="42.784583" lon="-2.280383">
        <ele>1156.0</ele>
        <time>2013-04-13T13:14:00Z</time>
      </trkpt>
      <trkpt lat="42.784467" lon="-2.280267">
        <ele>1166.0</ele>
        <time>2013-04-13T13:14:10Z</time>
      </trkpt>
      <trkpt lat="42.784350" lon="-2.280233">
        <ele>1177.0</ele>
        <time>2013-04-13T13:14:20Z</time>
      </trkpt>
      <trkpt lat="42.784817" lon="-2.281050">
        <ele>1199.0</ele>
        <time>2013-04-13T13:14:30Z</time>
      </trkpt>
      <trkpt lat="42.785317" lon="-2.280883">
        <ele>1215.0</ele>
        <time>2013-04-13T13:14:40Z</time>
      </trkpt>
      <trkpt lat="42.785333" lon="-2.280933">
        <ele>1227.0</ele>
        <time>2013-04-13T13:14:50Z</time>
      </trkpt>
      <trkpt lat="42.785400" lon="-2.280733">
        <ele>1238.0</ele>
        <time>2013-04-13T13:15:00Z</time>
      </trkpt>
      <trkpt lat="42.785300" lon="-2.280550">
        <ele>1249.0</ele>
        <time>2013-04-13T13:15:10Z</time>
      </trkpt>
      <trkpt lat="42.785217" lon="-2.280617">
        <ele>1263.0</ele>
        <time>2013-04-13T13:15:20Z</time>
      </trkpt>
      <trkpt lat="42.786083" lon="-2.280683">
        <ele>1279.0</ele>
        <time>2013-04-13T13:15:30Z</time>
      </trkpt>
      <trkpt lat="42.786067" lon="-2.280533">
        <ele>1285.0</ele>
        <time>2013-04-13T13:15:40Z</time>
      </trkpt>
      <trkpt lat="42.786117" lon="-2.280417">
        <ele>1289.0</ele>
        <time>2013-04-13T13:15:50Z</time>
      </trkpt>
      <trkpt lat="42.786367" lon="-2.279983">
        <ele>1293.0</ele>
        <time>2013-04-13T13:16:00Z</time>
      </trkpt>
      <trkpt lat="42.786650" lon="-2.279400">
        <ele>1297.0</ele>
        <time>2013-04-13T13:16:10Z</time>
      </trkpt>
      <trkpt lat="42.786983" lon="-2.278833">
        <ele>1298.0</ele>
        <time>2013-04-13T13:16:20Z</time>
      </trkpt>
      <trkpt lat="42.787100" lon="-2.278400">
        <ele>1300.0</ele>
        <time>2013-04-13T13:16:30Z</time>
      </trkpt>
      <trkpt lat="42.787217" lon="-2.278017">
        <ele>1302.0</ele>
        <time>2013-04-13T13:16:40Z</time>
      </trkpt>
      <trkpt lat="42.787183" lon="-2.277417">
        <ele>1304.0</ele>
        <time>2013-04-13T13:16:50Z</time>
      </trkpt>
      <trkpt lat="42.787083" lon="-2.277000">
        <ele>1306.0</ele>
        <time>2013-04-13T13:17:00Z</time>
      </trkpt>
      <trkpt lat="42.787017" lon="-2.276550">
        <ele>1309.0</ele>
        <time>2013-04-13T13:17:10Z</time>
      </trkpt>
      <trkpt lat="42.786950" lon="-2.276050">
        <ele>1312.0</ele>
        <time>2013-04-13T13:17:20Z</time>
      </trkpt>
      <trkpt lat="42.786800" lon="-2.275517">
        <ele>1313.0</ele>
        <time>2013-04-13T13:17:30Z</time>
      </trkpt>
      <trkpt lat="42.786567" lon="-2.275167">
        <ele>1315.0</ele>
        <time>2013-04-13T13:17:40Z</time>
      </trkpt>
      <trkpt lat="42.786300" lon="-2.274900">
        <ele>1314.0</ele>
        <time>2013-04-13T13:17:50Z</time>
      </trkpt>
      <trkpt lat="42.786067" lon="-2.274750">
        <ele>1312.0</ele>
        <time>2013-04-13T13:18:00Z</time>
      </trkpt>
      <trkpt lat="42.785900" lon="-2.274650">
        <ele>1307.0</ele>
        <time>2013-04-13T13:18:10Z</time>
      </trkpt>
      <trkpt lat="42.785650" lon="-2.274583">
        <ele>1300.0</ele>
        <time>2013-04-13T13:18:20Z</time>
      </trkpt>
      <trkpt lat="42.785283" lon="-2.274750">
        <ele>1292.0</ele>
        <time>2013-04-13T13:18:30Z</time>
      </trkpt>
      <trkpt lat="42.784933" lon="-2.274900">
        <ele>1284.0</ele>
        <time>2013-04-13T13:18:40Z</time>
      </trkpt>
      <trkpt lat="42.784700" lon="-2.275067">
        <ele>1277.0</ele>
        <time>2013-04-13T13:18:50Z</time>
      </trkpt>
      <trkpt lat="42.784433" lon="-2.275333">
        <ele>1273.0</ele>
        <time>2013-04-13T13:19:00Z</time>
      </trkpt>
      <trkpt lat="42.784167" lon="-2.275550">
        <ele>1269.0</ele>
        <time>2013-04-13T13:19:10Z</time>
      </trkpt>
      <trkpt lat="42.783800" lon="-2.275783">
        <ele>1266.0</ele>
        <time>2013-04-13T13:19:20Z</time>
      </trkpt>
      <trkpt lat="42.783283" lon="-2.276000">
        <ele>1265.0</ele>
        <time>2013-04-13T13:19:30Z</time>
      </trkpt>
      <trkpt lat="42.782717" lon="-2.276233">
        <ele>1267.0</ele>
        <time>2013-04-13T13:19:40Z</time>
      </trkpt>
      <trkpt lat="42.782283" lon="-2.276433">
        <ele>1267.0</ele>
        <time>2013-04-13T13:19:50Z</time>
      </trkpt>
      <trkpt lat="42.782000" lon="-2.276617">
        <ele>1265.0</ele>
        <time>2013-04-13T13:20:00Z</time>
      </trkpt>
      <trkpt lat="42.781783" lon="-2.276733">
        <ele>1261.0</ele>
        <time>2013-04-13T13:20:10Z</time>
      </trkpt>
      <trkpt lat="42.781517" lon="-2.276817">
        <ele>1254.0</ele>
        <time>2013-04-13T13:20:20Z</time>
      </trkpt>
      <trkpt lat="42.781217" lon="-2.276950">
        <ele>1245.0</ele>
        <time>2013-04-13T13:20:30Z</time>
      </trkpt>
      <trkpt lat="42.780900" lon="-2.277067">
        <ele>1235.0</ele>
        <time>2013-04-13T13:20:40Z</time>
      </trkpt>
      <trkpt lat="42.780567" lon="-2.277067">
        <ele>1224.0</ele>
        <time>2013-04-13T13:20:50Z</time>
      </trkpt>
      <trkpt lat="42.780283" lon="-2.276833">
        <ele>1211.0</ele>
        <time>2013-04-13T13:21:00Z</time>
      </trkpt>
      <trkpt lat="42.780050" lon="-2.276433">
        <ele>1197.0</ele>
        <time>2013-04-13T13:21:10Z</time>
      </trkpt>
      <trkpt lat="42.779700" lon="-2.276017">
        <ele>1182.0</ele>
        <time>2013-04-13T13:21:21Z</time>
      </trkpt>
      <trkpt lat="42.779450" lon="-2.275650">
        <ele>1170.0</ele>
        <time>2013-04-13T13:21:31Z</time>
      </trkpt>
      <trkpt lat="42.779183" lon="-2.275200">
        <ele>1159.0</ele>
        <time>2013-04-13T13:21:41Z</time>
      </trkpt>
      <trkpt lat="42.779050" lon="-2.274600">
        <ele>1145.0</ele>
        <time>2013-04-13T13:21:51Z</time>
      </trkpt>
      <trkpt lat="42.778950" lon="-2.274000">
        <ele>1133.0</ele>
        <time>2013-04-13T13:22:01Z</time>
      </trkpt>
      <trkpt lat="42.778733" lon="-2.273633">
        <ele>1121.0</ele>
        <time>2013-04-13T13:22:11Z</time>
      </trkpt>
      <trkpt lat="42.778950" lon="-2.274767">
        <ele>1101.0</ele>
        <time>2013-04-13T13:22:21Z</time>
      </trkpt>
      <trkpt lat="42.779483" lon="-2.275917">
        <ele>1087.0</ele>
        <time>2013-04-13T13:22:31Z</time>
      </trkpt>
      <trkpt lat="42.780083" lon="-2.276950">
        <ele>1072.0</ele>
        <time>2013-04-13T13:22:41Z</time>
      </trkpt>
      <trkpt lat="42.780700" lon="-2.278117">
        <ele>1057.0</ele>
        <time>2013-04-13T13:22:51Z</time>
      </trkpt>
      <trkpt lat="42.781167" lon="-2.279317">
        <ele>1040.0</ele>
        <time>2013-04-13T13:23:01Z</time>
      </trkpt>
      <trkpt lat="42.782083" lon="-2.279467">
        <ele>1025.0</ele>
        <time>2013-04-13T13:23:11Z</time>
      </trkpt>
      <trkpt lat="42.782833" lon="-2.278933">
        <ele>1017.0</ele>
        <time>2013-04-13T13:23:21Z</time>
      </trkpt>
      <trkpt lat="42.783017" lon="-2.278617">
        <ele>1014.0</ele>
        <time>2013-04-13T13:23:31Z</time>
      </trkpt>
      <trkpt lat="42.782900" lon="-2.279417">
        <ele>1010.0</ele>
        <time>2013-04-13T13:23:41Z</time>
      </trkpt>
      <trkpt lat="42.782683" lon="-2.280267">
        <ele>1005.0</ele>
        <time>2013-04-13T13:23:51Z</time>
      </trkpt>
      <trkpt lat="42.782350" lon="-2.280183">
        <ele>1002.0</ele>
        <time>2013-04-13T13:24:01Z</time>
      </trkpt>
      <trkpt lat="42.782383" lon="-2.279717">
        <ele>999.0</ele>
        <time>2013-04-13T13:24:11Z</time>
      </trkpt>
      <trkpt lat="42.782867" lon="-2.279250">
        <ele>993.0</ele>
        <time>2013-04-13T13:24:21Z</time>
      </trkpt>
      <trkpt lat="42.782833" lon="-2.278750">
        <ele>989.0</ele>
        <time>2013-04-13T13:24:31Z</time>
      </trkpt>
      <trkpt lat="42.782667" lon="-2.278317">
        <ele>985.0</ele>
        <time>2013-04-13T13:24:41Z</time>
      </trkpt>
      <trkpt lat="42.782683" lon="-2.277850">
        <ele>981.0</ele>
        <time>2013-04-13T13:24:51Z</time>
      </trkpt>
      <trkpt lat="42.782833" lon="-2.277400">
        <ele>981.0</ele>
        <time>2013-04-13T13:25:01Z</time>
      </trkpt>
      <trkpt lat="42.782867" lon="-2.276783">
        <ele>982.0</ele>
        <time>2013-04-13T13:25:11Z</time>
      </trkpt>
      <trkpt lat="42.782900" lon="-2.276267">
        <ele>985.0</ele>
        <time>2013-04-13T13:25:21Z</time>
      </trkpt>
      <trkpt lat="42.783100" lon="-2.277117">
        <ele>990.0</ele>
        <time>2013-04-13T13:25:31Z</time>
      </trkpt>
      <trkpt lat="42.783200" lon="-2.276783">
        <ele>994.0</ele>
        <time>2013-04-13T13:25:41Z</time>
      </trkpt>
      <trkpt lat="42.782783" lon="-2.277667">
        <ele>998.0</ele>
        <time>2013-04-13T13:25:51Z</time>
      </trkpt>
      <trkpt lat="42.782417" lon="-2.277767">
        <ele>1000.0</ele>
        <time>2013-04-13T13:26:01Z</time>
      </trkpt>
      <trkpt lat="42.782383" lon="-2.277183">
        <ele>1003.0</ele>
        <time>2013-04-13T13:26:11Z</time>
      </trkpt>
      <trkpt lat="42.782317" lon="-2.277417">
        <ele>1011.0</ele>
        <time>2013-04-13T13:26:21Z</time>
      </trkpt>
      <trkpt lat="42.783033" lon="-2.277600">
        <ele>1023.0</ele>
        <time>2013-04-13T13:26:31Z</time>
      </trkpt>
      <trkpt lat="42.782900" lon="-2.277367">
        <ele>1032.0</ele>
        <time>2013-04-13T13:26:41Z</time>
      </trkpt>
      <trkpt lat="42.782750" lon="-2.277783">
        <ele>1044.0</ele>
        <time>2013-04-13T13:26:51Z</time>
      </trkpt>
      <trkpt lat="42.783700" lon="-2.278300">
        <ele>1057.0</ele>
        <time>2013-04-13T13:27:01Z</time>
      </trkpt>
      <trkpt lat="42.783900" lon="-2.278017">
        <ele>1067.0</ele>
        <time>2013-04-13T13:27:11Z</time>
      </trkpt>
      <trkpt lat="42.783750" lon="-2.278800">
        <ele>1078.0</ele>
        <time>2013-04-13T13:27:21Z</time>
      </trkpt>
      <trkpt lat="42.783467" lon="-2.279383">
        <ele>1084.0</ele>
        <time>2013-04-13T13:27:31Z</time>
      </trkpt>
      <trkpt lat="42.783250" lon="-2.279533">
        <ele>1091.0</ele>
        <time>2013-04-13T13:27:41Z</time>
      </trkpt>
      <trkpt lat="42.782983" lon="-2.279550">
        <ele>1097.0</ele>
        <time>2013-04-13T13:27:51Z</time>
      </trkpt>
      <trkpt lat="42.782717" lon="-2.279550">
        <ele>1098.0</ele>
        <time>2013-04-13T13:28:01Z</time>
      </trkpt>
      <trkpt lat="42.782450" lon="-2.279400">
        <ele>1100.0</ele>
        <time>2013-04-13T13:28:11Z</time>
      </trkpt>
      <trkpt lat="42.782583" lon="-2.280267">
        <ele>1104.0</ele>
        <time>2013-04-13T13:28:21Z</time>
      </trkpt>
      <trkpt lat="42.783133" lon="-2.280183">
        <ele>1109.0</ele>
        <time>2013-04-13T13:28:31Z</time>
      </trkpt>
      <trkpt lat="42.782917" lon="-2.280300">
        <ele>1114.0</ele>
        <time>2013-04-13T13:28:41Z</time>
      </trkpt>
      <trkpt lat="42.782633" lon="-2.280567">
        <ele>1119.0</ele>
        <time>2013-04-13T13:28:51Z</time>
      </trkpt>
      <trkpt lat="42.782167" lon="-2.280833">
        <ele>1129.0</ele>
        <time>2013-04-13T13:29:02Z</time>
      </trkpt>
      <trkpt lat="42.782717" lon="-2.281467">
        <ele>1140.0</ele>
        <time>2013-04-13T13:29:12Z</time>
      </trkpt>
      <trkpt lat="42.782350" lon="-2.282083">
        <ele>1153.0</ele>
        <time>2013-04-13T13:29:22Z</time>
      </trkpt>
      <trkpt lat="42.782283" lon="-2.281883">
        <ele>1165.0</ele>
        <time>2013-04-13T13:29:32Z</time>
      </trkpt>
      <trkpt lat="42.782717" lon="-2.282767">
        <ele>1188.0</ele>
        <time>2013-04-13T13:29:42Z</time>
      </trkpt>
      <trkpt lat="42.783217" lon="-2.282533">
        <ele>1212.0</ele>
        <time>2013-04-13T13:29:52Z</time>
      </trkpt>
      <trkpt lat="42.783083" lon="-2.282650">
        <ele>1230.0</ele>
        <time>2013-04-13T13:30:02Z</time>
      </trkpt>
      <trkpt lat="42.783183" lon="-2.283317">
        <ele>1259.0</ele>
        <time>2013-04-13T13:30:12Z</time>
      </trkpt>
      <trkpt lat="42.783717" lon="-2.283267">
        <ele>1279.0</ele>
        <time>2013-04-13T13:30:22Z</time>
      </trkpt>
      <trkpt lat="42.783567" lon="-2.283400">
        <ele>1290.0</ele>
        <time>2013-04-13T13:30:32Z</time>
      </trkpt>
      <trkpt lat="42.783367" lon="-2.283700">
        <ele>1301.0</ele>
        <time>2013-04-13T13:30:42Z</time>
      </trkpt>
      <trkpt lat="42.783233" lon="-2.284200">
        <ele>1313.0</ele>
        <time>2013-04-13T13:30:52Z</time>
      </trkpt>
      <trkpt lat="42.782967" lon="-2.284567">
        <ele>1324.0</ele>
        <time>2013-04-13T13:31:02Z</time>
      </trkpt>
      <trkpt lat="42.782700" lon="-2.284800">
        <ele>1336.0</ele>
        <time>2013-04-13T13:31:12Z</time>
      </trkpt>
      <trkpt lat="42.782517" lon="-2.285000">
        <ele>1346.0</ele>
        <time>2013-04-13T13:31:22Z</time>
      </trkpt>
      <trkpt lat="42.782250" lon="-2.285283">
        <ele>1356.0</ele>
        <time>2013-04-13T13:31:32Z</time>
      </trkpt>
      <trkpt lat="42.782033" lon="-2.285600">
        <ele>1363.0</ele>
        <time>2013-04-13T13:31:42Z</time>
      </trkpt>
      <trkpt lat="42.781750" lon="-2.286067">
        <ele>1366.0</ele>
        <time>2013-04-13T13:31:52Z</time>
      </trkpt>
      <trkpt lat="42.781517" lon="-2.286533">
        <ele>1362.0</ele>
        <time>2013-04-13T13:32:02Z</time>
      </trkpt>
      <trkpt lat="42.781283" lon="-2.286983">
        <ele>1349.0</ele>
        <time>2013-04-13T13:32:12Z</time>
      </trkpt>
      <trkpt lat="42.781067" lon="-2.287367">
        <ele>1334.0</ele>
        <time>2013-04-13T13:32:22Z</time>
      </trkpt>
      <trkpt lat="42.780550" lon="-2.287783">
        <ele>1306.0</ele>
        <time>2013-04-13T13:32:32Z</time>
      </trkpt>
      <trkpt lat="42.780100" lon="-2.288417">
        <ele>1288.0</ele>
        <time>2013-04-13T13:32:42Z</time>
      </trkpt>
      <trkpt lat="42.779567" lon="-2.289100">
        <ele>1275.0</ele>
        <time>2013-04-13T13:32:52Z</time>
      </trkpt>
      <trkpt lat="42.779167" lon="-2.289950">
        <ele>1271.0</ele>
        <time>2013-04-13T13:33:02Z</time>
      </trkpt>
      <trkpt lat="42.778850" lon="-2.290700">
        <ele>1269.0</ele>
        <time>2013-04-13T13:33:12Z</time>
      </trkpt>
      <trkpt lat="42.778517" lon="-2.291517">
        <ele>1265.0</ele>
        <time>2013-04-13T13:33:22Z</time>
      </trkpt>
      <trkpt lat="42.778233" lon="-2.292317">
        <ele>1256.0</ele>
        <time>2013-04-13T13:33:32Z</time>
      </trkpt>
      <trkpt lat="42.778000" lon="-2.292933">
        <ele>1244.0</ele>
        <time>2013-04-13T13:33:42Z</time>
      </trkpt>
      <trkpt lat="42.777800" lon="-2.293417">
        <ele>1230.0</ele>
        <time>2013-04-13T13:33:52Z</time>
      </trkpt>
      <trkpt lat="42.777450" lon="-2.294083">
        <ele>1204.0</ele>
        <time>2013-04-13T13:34:02Z</time>
      </trkpt>
      <trkpt lat="42.777183" lon="-2.294750">
        <ele>1189.0</ele>
        <time>2013-04-13T13:34:12Z</time>
      </trkpt>
      <trkpt lat="42.776917" lon="-2.295267">
        <ele>1182.0</ele>
        <time>2013-04-13T13:34:22Z</time>
      </trkpt>
      <trkpt lat="42.776583" lon="-2.295767">
        <ele>1169.0</ele>
        <time>2013-04-13T13:34:32Z</time>
      </trkpt>
      <trkpt lat="42.776267" lon="-2.296517">
        <ele>1149.0</ele>
        <time>2013-04-13T13:34:42Z</time>
      </trkpt>
      <trkpt lat="42.775967" lon="-2.297250">
        <ele>1127.0</ele>
        <time>2013-04-13T13:34:52Z</time>
      </trkpt>
      <trkpt lat="42.775667" lon="-2.297967">
        <ele>1101.0</ele>
        <time>2013-04-13T13:35:02Z</time>
      </trkpt>
      <trkpt lat="42.775333" lon="-2.298517">
        <ele>1079.0</ele>
        <time>2013-04-13T13:35:12Z</time>
      </trkpt>
      <trkpt lat="42.775167" lon="-2.299333">
        <ele>1063.0</ele>
        <time>2013-04-13T13:35:22Z</time>
      </trkpt>
      <trkpt lat="42.775100" lon="-2.300217">
        <ele>1051.0</ele>
        <time>2013-04-13T13:35:32Z</time>
      </trkpt>
      <trkpt lat="42.774983" lon="-2.300850">
        <ele>1044.0</ele>
        <time>2013-04-13T13:35:42Z</time>
      </trkpt>
      <trkpt lat="42.774783" lon="-2.301533">
        <ele>1038.0</ele>
        <time>2013-04-13T13:35:52Z</time>
      </trkpt>
      <trkpt lat="42.774650" lon="-2.302400">
        <ele>1037.0</ele>
        <time>2013-04-13T13:36:02Z</time>
      </trkpt>
      <trkpt lat="42.774500" lon="-2.303250">
        <ele>1041.0</ele>
        <time>2013-04-13T13:36:13Z</time>
      </trkpt>
      <trkpt lat="42.774450" lon="-2.304150">
        <ele>1047.0</ele>
        <time>2013-04-13T13:36:23Z</time>
      </trkpt>
      <trkpt lat="42.774367" lon="-2.304100">
        <ele>1050.0</ele>
        <time>2013-04-13T13:36:33Z</time>
      </trkpt>
      <trkpt lat="42.774933" lon="-2.303217">
        <ele>1052.0</ele>
        <time>2013-04-13T13:36:43Z</time>
      </trkpt>
      <trkpt lat="42.775533" lon="-2.302350">
        <ele>1054.0</ele>
        <time>2013-04-13T13:36:53Z</time>
      </trkpt>
      <trkpt lat="42.775267" lon="-2.302350">
        <ele>1055.0</ele>
        <time>2013-04-13T13:37:03Z</time>
      </trkpt>
      <trkpt lat="42.775167" lon="-2.303083">
        <ele>1057.0</ele>
        <time>2013-04-13T13:37:13Z</time>
      </trkpt>
      <trkpt lat="42.775050" lon="-2.303883">
        <ele>1059.0</ele>
        <time>2013-04-13T13:37:23Z</time>
      </trkpt>
      <trkpt lat="42.774883" lon="-2.304783">
        <ele>1064.0</ele>
        <time>2013-04-13T13:37:33Z</time>
      </trkpt>
      <trkpt lat="42.774783" lon="-2.304733">
        <ele>1068.0</ele>
        <time>2013-04-13T13:37:43Z</time>
      </trkpt>
      <trkpt lat="42.774917" lon="-2.304317">
        <ele>1074.0</ele>
        <time>2013-04-13T13:37:53Z</time>
      </trkpt>
      <trkpt lat="42.774750" lon="-2.305350">
        <ele>1083.0</ele>
        <time>2013-04-13T13:38:03Z</time>
      </trkpt>
      <trkpt lat="42.774567" lon="-2.306267">
        <ele>1092.0</ele>
        <time>2013-04-13T13:38:13Z</time>
      </trkpt>
      <trkpt lat="42.774533" lon="-2.305783">
        <ele>1100.0</ele>
        <time>2013-04-13T13:38:23Z</time>
      </trkpt>
      <trkpt lat="42.774533" lon="-2.305433">
        <ele>1112.0</ele>
        <time>2013-04-13T13:38:33Z</time>
      </trkpt>
      <trkpt lat="42.774700" lon="-2.306367">
        <ele>1134.0</ele>
        <time>2013-04-13T13:38:43Z</time>
      </trkpt>
      <trkpt lat="42.774567" lon="-2.306183">
        <ele>1147.0</ele>
        <time>2013-04-13T13:38:53Z</time>
      </trkpt>
      <trkpt lat="42.774467" lon="-2.306167">
        <ele>1161.0</ele>
        <time>2013-04-13T13:39:03Z</time>
      </trkpt>
      <trkpt lat="42.774917" lon="-2.307383">
        <ele>1179.0</ele>
        <time>2013-04-13T13:39:13Z</time>
      </trkpt>
      <trkpt lat="42.775000" lon="-2.308050">
        <ele>1187.0</ele>
        <time>2013-04-13T13:39:23Z</time>
      </trkpt>
      <trkpt lat="42.774917" lon="-2.307633">
        <ele>1194.0</ele>
        <time>2013-04-13T13:39:33Z</time>
      </trkpt>
      <trkpt lat="42.774883" lon="-2.307583">
        <ele>1202.0</ele>
        <time>2013-04-13T13:39:43Z</time>
      </trkpt>
      <trkpt lat="42.774700" lon="-2.307483">
        <ele>1212.0</ele>
        <time>2013-04-13T13:39:53Z</time>
      </trkpt>
      <trkpt lat="42.774483" lon="-2.307333">
        <ele>1221.0</ele>
        <time>2013-04-13T13:40:03Z</time>
      </trkpt>
      <trkpt lat="42.774250" lon="-2.306967">
        <ele>1230.0</ele>
        <time>2013-04-13T13:40:13Z</time>
      </trkpt>
      <trkpt lat="42.773950" lon="-2.306933">
        <ele>1238.0</ele>
        <time>2013-04-13T13:40:23Z</time>
      </trkpt>
      <trkpt lat="42.773817" lon="-2.306433">
        <ele>1245.0</ele>
        <time>2013-04-13T13:40:33Z</time>
      </trkpt>
      <trkpt lat="42.773883" lon="-2.306083">
        <ele>1248.0</ele>
        <time>2013-04-13T13:40:43Z</time>
      </trkpt>
      <trkpt lat="42.774233" lon="-2.307133">
        <ele>1246.0</ele>
        <time>2013-04-13T13:40:53Z</time>
      </trkpt>
      <trkpt lat="42.774550" lon="-2.308267">
        <ele>1241.0</ele>
        <time>2013-04-13T13:41:03Z</time>
      </trkpt>
      <trkpt lat="42.774500" lon="-2.307967">
        <ele>1239.0</ele>
        <time>2013-04-13T13:41:13Z</time>
      </trkpt>
      <trkpt lat="42.774583" lon="-2.307483">
        <ele>1237.0</ele>
        <time>2013-04-13T13:41:23Z</time>
      </trkpt>
      <trkpt lat="42.774550" lon="-2.307100">
        <ele>1237.0</ele>
        <time>2013-04-13T13:41:33Z</time>
      </trkpt>
      <trkpt lat="42.774567" lon="-2.306583">
        <ele>1236.0</ele>
        <time>2013-04-13T13:41:43Z</time>
      </trkpt>
      <trkpt lat="42.774667" lon="-2.305933">
        <ele>1234.0</ele>
        <time>2013-04-13T13:41:53Z</time>
      </trkpt>
      <trkpt lat="42.774533" lon="-2.306133">
        <ele>1232.0</ele>
        <time>2013-04-13T13:42:03Z</time>
      </trkpt>
      <trkpt lat="42.774617" lon="-2.307133">
        <ele>1226.0</ele>
        <time>2013-04-13T13:42:13Z</time>
      </trkpt>
      <trkpt lat="42.774650" lon="-2.308100">
        <ele>1223.0</ele>
        <time>2013-04-13T13:42:23Z</time>
      </trkpt>
      <trkpt lat="42.774667" lon="-2.309050">
        <ele>1221.0</ele>
        <time>2013-04-13T13:42:33Z</time>
      </trkpt>
      <trkpt lat="42.774800" lon="-2.310067">
        <ele>1220.0</ele>
        <time>2013-04-13T13:42:43Z</time>
      </trkpt>
      <trkpt lat="42.774967" lon="-2.310950">
        <ele>1219.0</ele>
        <time>2013-04-13T13:42:53Z</time>
      </trkpt>
      <trkpt lat="42.775100" lon="-2.311833">
        <ele>1216.0</ele>
        <time>2013-04-13T13:43:03Z</time>
      </trkpt>
      <trkpt lat="42.775100" lon="-2.312800">
        <ele>1213.0</ele>
        <time>2013-04-13T13:43:13Z</time>
      </trkpt>
      <trkpt lat="42.775183" lon="-2.313683">
        <ele>1213.0</ele>
        <time>2013-04-13T13:43:23Z</time>
      </trkpt>
      <trkpt lat="42.775233" lon="-2.314617">
        <ele>1210.0</ele>
        <time>2013-04-13T13:43:33Z</time>
      </trkpt>
      <trkpt lat="42.775433" lon="-2.315567">
        <ele>1207.0</ele>
        <time>2013-04-13T13:43:43Z</time>
      </trkpt>
      <trkpt lat="42.775567" lon="-2.316617">
        <ele>1203.0</ele>
        <time>2013-04-13T13:43:54Z</time>
      </trkpt>
      <trkpt lat="42.775567" lon="-2.317717">
        <ele>1196.0</ele>
        <time>2013-04-13T13:44:04Z</time>
      </trkpt>
      <trkpt lat="42.775650" lon="-2.318717">
        <ele>1187.0</ele>
        <time>2013-04-13T13:44:14Z</time>
      </trkpt>
      <trkpt lat="42.776000" lon="-2.319883">
        <ele>1171.0</ele>
        <time>2013-04-13T13:44:24Z</time>
      </trkpt>
      <trkpt lat="42.776717" lon="-2.321183">
        <ele>1155.0</ele>
        <time>2013-04-13T13:44:34Z</time>
      </trkpt>
      <trkpt lat="42.776850" lon="-2.322583">
        <ele>1142.0</ele>
        <time>2013-04-13T13:44:44Z</time>
      </trkpt>
      <trkpt lat="42.776700" lon="-2.323750">
        <ele>1132.0</ele>
        <time>2013-04-13T13:44:54Z</time>
      </trkpt>
      <trkpt lat="42.776467" lon="-2.324717">
        <ele>1125.0</ele>
        <time>2013-04-13T13:45:04Z</time>
      </trkpt>
      <trkpt lat="42.776217" lon="-2.325600">
        <ele>1121.0</ele>
        <time>2013-04-13T13:45:14Z</time>
      </trkpt>
      <trkpt lat="42.775917" lon="-2.326300">
        <ele>1119.0</ele>
        <time>2013-04-13T13:45:24Z</time>
      </trkpt>
      <trkpt lat="42.775617" lon="-2.327083">
        <ele>1120.0</ele>
        <time>2013-04-13T13:45:34Z</time>
      </trkpt>
      <trkpt lat="42.775467" lon="-2.327533">
        <ele>1122.0</ele>
        <time>2013-04-13T13:45:44Z</time>
      </trkpt>
      <trkpt lat="42.775233" lon="-2.327717">
        <ele>1128.0</ele>
        <time>2013-04-13T13:45:54Z</time>
      </trkpt>
      <trkpt lat="42.775050" lon="-2.327883">
        <ele>1136.0</ele>
        <time>2013-04-13T13:46:04Z</time>
      </trkpt>
      <trkpt lat="42.774850" lon="-2.328033">
        <ele>1144.0</ele>
        <time>2013-04-13T13:46:14Z</time>
      </trkpt>
      <trkpt lat="42.774667" lon="-2.328233">
        <ele>1150.0</ele>
        <time>2013-04-13T13:46:24Z</time>
      </trkpt>
      <trkpt lat="42.774500" lon="-2.328467">
        <ele>1155.0</ele>
        <time>2013-04-13T13:46:34Z</time>
      </trkpt>
      <trkpt lat="42.774283" lon="-2.328700">
        <ele>1158.0</ele>
        <time>2013-04-13T13:46:44Z</time>
      </trkpt>
      <trkpt lat="42.774033" lon="-2.328867">
        <ele>1163.0</ele>
        <time>2013-04-13T13:46:54Z</time>
      </trkpt>
      <trkpt lat="42.773883" lon="-2.329033">
        <ele>1168.0</ele>
        <time>2013-04-13T13:47:04Z</time>
      </trkpt>
      <trkpt lat="42.773700" lon="-2.329250">
        <ele>1171.0</ele>
        <time>2013-04-13T13:47:14Z</time>
      </trkpt>
      <trkpt lat="42.773467" lon="-2.329617">
        <ele>1171.0</ele>
        <time>2013-04-13T13:47:24Z</time>
      </trkpt>
      <trkpt lat="42.773233" lon="-2.330117">
        <ele>1170.0</ele>
        <time>2013-04-13T13:47:34Z</time>
      </trkpt>
      <trkpt lat="42.773000" lon="-2.330517">
        <ele>1169.0</ele>
        <time>2013-04-13T13:47:44Z</time>
      </trkpt>
      <trkpt lat="42.772750" lon="-2.330833">
        <ele>1167.0</ele>
        <time>2013-04-13T13:47:54Z</time>
      </trkpt>
      <trkpt lat="42.772400" lon="-2.331167">
        <ele>1165.0</ele>
        <time>2013-04-13T13:48:04Z</time>
      </trkpt>
      <trkpt lat="42.772133" lon="-2.331583">
        <ele>1162.0</ele>
        <time>2013-04-13T13:48:14Z</time>
      </trkpt>
      <trkpt lat="42.771783" lon="-2.332050">
        <ele>1156.0</ele>
        <time>2013-04-13T13:48:24Z</time>
      </trkpt>
      <trkpt lat="42.771517" lon="-2.332550">
        <ele>1152.0</ele>
        <time>2013-04-13T13:48:34Z</time>
      </trkpt>
      <trkpt lat="42.771283" lon="-2.332983">
        <ele>1149.0</ele>
        <time>2013-04-13T13:48:44Z</time>
      </trkpt>
      <trkpt lat="42.771017" lon="-2.333183">
        <ele>1148.0</ele>
        <time>2013-04-13T13:48:54Z</time>
      </trkpt>
      <trkpt lat="42.770867" lon="-2.333550">
        <ele>1149.0</ele>
        <time>2013-04-13T13:49:04Z</time>
      </trkpt>
      <trkpt lat="42.770667" lon="-2.333800">
        <ele>1150.0</ele>
        <time>2013-04-13T13:49:14Z</time>
      </trkpt>
      <trkpt lat="42.770517" lon="-2.333950">
        <ele>1151.0</ele>
        <time>2013-04-13T13:49:24Z</time>
      </trkpt>
      <trkpt lat="42.770367" lon="-2.334100">
        <ele>1154.0</ele>
        <time>2013-04-13T13:49:34Z</time>
      </trkpt>
      <trkpt lat="42.770283" lon="-2.334267">
        <ele>1159.0</ele>
        <time>2013-04-13T13:49:44Z</time>
      </trkpt>
      <trkpt lat="42.770183" lon="-2.334350">
        <ele>1168.0</ele>
        <time>2013-04-13T13:49:54Z</time>
      </trkpt>
      <trkpt lat="42.770083" lon="-2.334483">
        <ele>1179.0</ele>
        <time>2013-04-13T13:50:04Z</time>
      </trkpt>
      <trkpt lat="42.769833" lon="-2.334750">
        <ele>1190.0</ele>
        <time>2013-04-13T13:50:14Z</time>
      </trkpt>
      <trkpt lat="42.769550" lon="-2.335133">
        <ele>1200.0</ele>
        <time>2013-04-13T13:50:24Z</time>
      </trkpt>
      <trkpt lat="42.769217" lon="-2.335500">
        <ele>1208.0</ele>
        <time>2013-04-13T13:50:34Z</time>
      </trkpt>
      <trkpt lat="42.768933" lon="-2.335817">
        <ele>1215.0</ele>
        <time>2013-04-13T13:50:44Z</time>
      </trkpt>
      <trkpt lat="42.768667" lon="-2.336000">
        <ele>1222.0</ele>
        <time>2013-04-13T13:50:54Z</time>
      </trkpt>
      <trkpt lat="42.768433" lon="-2.336350">
        <ele>1228.0</ele>
        <time>2013-04-13T13:51:04Z</time>
      </trkpt>
      <trkpt lat="42.768200" lon="-2.336883">
        <ele>1234.0</ele>
        <time>2013-04-13T13:51:14Z</time>
      </trkpt>
      <trkpt lat="42.768000" lon="-2.337550">
        <ele>1240.0</ele>
        <time>2013-04-13T13:51:24Z</time>
      </trkpt>
      <trkpt lat="42.767800" lon="-2.338283">
        <ele>1240.0</ele>
        <time>2013-04-13T13:51:34Z</time>
      </trkpt>
      <trkpt lat="42.767533" lon="-2.339150">
        <ele>1234.0</ele>
        <time>2013-04-13T13:51:45Z</time>
      </trkpt>
      <trkpt lat="42.767250" lon="-2.340083">
        <ele>1225.0</ele>
        <time>2013-04-13T13:51:55Z</time>
      </trkpt>
      <trkpt lat="42.767067" lon="-2.341050">
        <ele>1218.0</ele>
        <time>2013-04-13T13:52:05Z</time>
      </trkpt>
      <trkpt lat="42.766867" lon="-2.341917">
        <ele>1214.0</ele>
        <time>2013-04-13T13:52:15Z</time>
      </trkpt>
      <trkpt lat="42.766667" lon="-2.342867">
        <ele>1208.0</ele>
        <time>2013-04-13T13:52:25Z</time>
      </trkpt>
      <trkpt lat="42.766467" lon="-2.343633">
        <ele>1203.0</ele>
        <time>2013-04-13T13:52:35Z</time>
      </trkpt>
      <trkpt lat="42.766250" lon="-2.344483">
        <ele>1199.0</ele>
        <time>2013-04-13T13:52:45Z</time>
      </trkpt>
      <trkpt lat="42.766050" lon="-2.345417">
        <ele>1198.0</ele>
        <time>2013-04-13T13:52:55Z</time>
      </trkpt>
      <trkpt lat="42.765800" lon="-2.346467">
        <ele>1202.0</ele>
        <time>2013-04-13T13:53:05Z</time>
      </trkpt>
      <trkpt lat="42.765467" lon="-2.347400">
        <ele>1208.0</ele>
        <time>2013-04-13T13:53:15Z</time>
      </trkpt>
      <trkpt lat="42.765200" lon="-2.348350">
        <ele>1215.0</ele>
        <time>2013-04-13T13:53:25Z</time>
      </trkpt>
      <trkpt lat="42.764967" lon="-2.349500">
        <ele>1220.0</ele>
        <time>2013-04-13T13:53:35Z</time>
      </trkpt>
      <trkpt lat="42.764700" lon="-2.350650">
        <ele>1223.0</ele>
        <time>2013-04-13T13:53:45Z</time>
      </trkpt>
      <trkpt lat="42.764367" lon="-2.351667">
        <ele>1221.0</ele>
        <time>2013-04-13T13:53:55Z</time>
      </trkpt>
      <trkpt lat="42.764067" lon="-2.352717">
        <ele>1217.0</ele>
        <time>2013-04-13T13:54:05Z</time>
      </trkpt>
      <trkpt lat="42.763817" lon="-2.353683">
        <ele>1214.0</ele>
        <time>2013-04-13T13:54:15Z</time>
      </trkpt>
      <trkpt lat="42.763467" lon="-2.354583">
        <ele>1211.0</ele>
        <time>2013-04-13T13:54:25Z</time>
      </trkpt>
      <trkpt lat="42.763183" lon="-2.355500">
        <ele>1209.0</ele>
        <time>2013-04-13T13:54:35Z</time>
      </trkpt>
      <trkpt lat="42.762900" lon="-2.356217">
        <ele>1210.0</ele>
        <time>2013-04-13T13:54:45Z</time>
      </trkpt>
      <trkpt lat="42.762650" lon="-2.356950">
        <ele>1213.0</ele>
        <time>2013-04-13T13:54:55Z</time>
      </trkpt>
      <trkpt lat="42.762417" lon="-2.357633">
        <ele>1216.0</ele>
        <time>2013-04-13T13:55:05Z</time>
      </trkpt>
      <trkpt lat="42.762150" lon="-2.358283">
        <ele>1220.0</ele>
        <time>2013-04-13T13:55:15Z</time>
      </trkpt>
      <trkpt lat="42.761900" lon="-2.358883">
        <ele>1225.0</ele>
        <time>2013-04-13T13:55:25Z</time>
      </trkpt>
      <trkpt lat="42.761633" lon="-2.359433">
        <ele>1230.0</ele>
        <time>2013-04-13T13:55:35Z</time>
      </trkpt>
      <trkpt lat="42.761317" lon="-2.360083">
        <ele>1237.0</ele>
        <time>2013-04-13T13:55:45Z</time>
      </trkpt>
      <trkpt lat="42.761100" lon="-2.360667">
        <ele>1240.0</ele>
        <time>2013-04-13T13:55:55Z</time>
      </trkpt>
      <trkpt lat="42.760867" lon="-2.361267">
        <ele>1245.0</ele>
        <time>2013-04-13T13:56:05Z</time>
      </trkpt>
      <trkpt lat="42.760483" lon="-2.361700">
        <ele>1253.0</ele>
        <time>2013-04-13T13:56:15Z</time>
      </trkpt>
      <trkpt lat="42.761067" lon="-2.362000">
        <ele>1267.0</ele>
        <time>2013-04-13T13:56:25Z</time>
      </trkpt>
      <trkpt lat="42.760817" lon="-2.361867">
        <ele>1276.0</ele>
        <time>2013-04-13T13:56:35Z</time>
      </trkpt>
      <trkpt lat="42.760567" lon="-2.362333">
        <ele>1291.0</ele>
        <time>2013-04-13T13:56:45Z</time>
      </trkpt>
      <trkpt lat="42.760183" lon="-2.362733">
        <ele>1298.0</ele>
        <time>2013-04-13T13:56:55Z</time>
      </trkpt>
      <trkpt lat="42.759883" lon="-2.363233">
        <ele>1302.0</ele>
        <time>2013-04-13T13:57:05Z</time>
      </trkpt>
      <trkpt lat="42.759500" lon="-2.363783">
        <ele>1305.0</ele>
        <time>2013-04-13T13:57:15Z</time>
      </trkpt>
      <trkpt lat="42.759117" lon="-2.364167">
        <ele>1307.0</ele>
        <time>2013-04-13T13:57:25Z</time>
      </trkpt>
      <trkpt lat="42.758733" lon="-2.364483">
        <ele>1310.0</ele>
        <time>2013-04-13T13:57:35Z</time>
      </trkpt>
      <trkpt lat="42.758483" lon="-2.364300">
        <ele>1316.0</ele>
        <time>2013-04-13T13:57:45Z</time>
      </trkpt>
      <trkpt lat="42.758533" lon="-2.364833">
        <ele>1327.0</ele>
        <time>2013-04-13T13:57:55Z</time>
      </trkpt>
      <trkpt lat="42.758933" lon="-2.364533">
        <ele>1337.0</ele>
        <time>2013-04-13T13:58:05Z</time>
      </trkpt>
      <trkpt lat="42.758567" lon="-2.364517">
        <ele>1348.0</ele>
        <time>2013-04-13T13:58:15Z</time>
      </trkpt>
      <trkpt lat="42.758217" lon="-2.364833">
        <ele>1362.0</ele>
        <time>2013-04-13T13:58:25Z</time>
      </trkpt>
      <trkpt lat="42.758883" lon="-2.364933">
        <ele>1377.0</ele>
        <time>2013-04-13T13:58:35Z</time>
      </trkpt>
      <trkpt lat="42.758633" lon="-2.364917">
        <ele>1382.0</ele>
        <time>2013-04-13T13:58:45Z</time>
      </trkpt>
      <trkpt lat="42.758183" lon="-2.364833">
        <ele>1386.0</ele>
        <time>2013-04-13T13:58:55Z</time>
      </trkpt>
      <trkpt lat="42.757783" lon="-2.364683">
        <ele>1389.0</ele>
        <time>2013-04-13T13:59:05Z</time>
      </trkpt>
      <trkpt lat="42.757900" lon="-2.365500">
        <ele>1396.0</ele>
        <time>2013-04-13T13:59:16Z</time>
      </trkpt>
      <trkpt lat="42.758217" lon="-2.365183">
        <ele>1402.0</ele>
        <time>2013-04-13T13:59:26Z</time>
      </trkpt>
      <trkpt lat="42.757867" lon="-2.365250">
        <ele>1407.0</ele>
        <time>2013-04-13T13:59:36Z</time>
      </trkpt>
      <trkpt lat="42.757383" lon="-2.365200">
        <ele>1412.0</ele>
        <time>2013-04-13T13:59:46Z</time>
      </trkpt>
      <trkpt lat="42.756917" lon="-2.365167">
        <ele>1419.0</ele>
        <time>2013-04-13T13:59:56Z</time>
      </trkpt>
      <trkpt lat="42.756467" lon="-2.365250">
        <ele>1427.0</ele>
        <time>2013-04-13T14:00:06Z</time>
      </trkpt>
      <trkpt lat="42.756883" lon="-2.365900">
        <ele>1444.0</ele>
        <time>2013-04-13T14:00:16Z</time>
      </trkpt>
      <trkpt lat="42.757067" lon="-2.365400">
        <ele>1455.0</ele>
        <time>2013-04-13T14:00:26Z</time>
      </trkpt>
      <trkpt lat="42.756733" lon="-2.365233">
        <ele>1464.0</ele>
        <time>2013-04-13T14:00:36Z</time>
      </trkpt>
      <trkpt lat="42.756367" lon="-2.365150">
        <ele>1472.0</ele>
        <time>2013-04-13T14:00:46Z</time>
      </trkpt>
      <trkpt lat="42.755833" lon="-2.365083">
        <ele>1484.0</ele>
        <time>2013-04-13T14:00:56Z</time>
      </trkpt>
      <trkpt lat="42.755350" lon="-2.364900">
        <ele>1490.0</ele>
        <time>2013-04-13T14:01:06Z</time>
      </trkpt>
      <trkpt lat="42.754867" lon="-2.364700">
        <ele>1493.0</ele>
        <time>2013-04-13T14:01:16Z</time>
      </trkpt>
      <trkpt lat="42.754383" lon="-2.364500">
        <ele>1494.0</ele>
        <time>2013-04-13T14:01:26Z</time>
      </trkpt>
      <trkpt lat="42.753850" lon="-2.364350">
        <ele>1490.0</ele>
        <time>2013-04-13T14:01:36Z</time>
      </trkpt>
      <trkpt lat="42.753433" lon="-2.364083">
        <ele>1485.0</ele>
        <time>2013-04-13T14:01:46Z</time>
      </trkpt>
      <trkpt lat="42.753083" lon="-2.364000">
        <ele>1478.0</ele>
        <time>2013-04-13T14:01:56Z</time>
      </trkpt>
      <trkpt lat="42.752683" lon="-2.363883">
        <ele>1468.0</ele>
        <time>2013-04-13T14:02:06Z</time>
      </trkpt>
      <trkpt lat="42.752567" lon="-2.363883">
        <ele>1465.0</ele>
        <time>2013-04-13T14:02:09Z</time>
      </trkpt>
      <trkpt lat="42.752533" lon="-2.363883">
        <ele>1464.0</ele>
        <time>2013-04-13T14:02:10Z</time>
      </trkpt>
      <trkpt lat="42.752483" lon="-2.363383">
        <ele>1447.0</ele>
        <time>2013-04-13T14:02:20Z</time>
      </trkpt>
      <trkpt lat="42.753217" lon="-2.362450">
        <ele>1432.0</ele>
        <time>2013-04-13T14:02:30Z</time>
      </trkpt>
      <trkpt lat="42.753983" lon="-2.361567">
        <ele>1418.0</ele>
        <time>2013-04-13T14:02:40Z</time>
      </trkpt>
      <trkpt lat="42.754850" lon="-2.360683">
        <ele>1406.0</ele>
        <time>2013-04-13T14:02:50Z</time>
      </trkpt>
      <trkpt lat="42.755700" lon="-2.359767">
        <ele>1394.0</ele>
        <time>2013-04-13T14:03:00Z</time>
      </trkpt>
      <trkpt lat="42.756650" lon="-2.358917">
        <ele>1382.0</ele>
        <time>2013-04-13T14:03:10Z</time>
      </trkpt>
      <trkpt lat="42.757717" lon="-2.358300">
        <ele>1371.0</ele>
        <time>2013-04-13T14:03:20Z</time>
      </trkpt>
      <trkpt lat="42.758733" lon="-2.357733">
        <ele>1364.0</ele>
        <time>2013-04-13T14:03:30Z</time>
      </trkpt>
      <trkpt lat="42.759317" lon="-2.356967">
        <ele>1362.0</ele>
        <time>2013-04-13T14:03:40Z</time>
      </trkpt>
      <trkpt lat="42.759400" lon="-2.357483">
        <ele>1362.0</ele>
        <time>2013-04-13T14:03:50Z</time>
      </trkpt>
      <trkpt lat="42.760250" lon="-2.357050">
        <ele>1363.0</ele>
        <time>2013-04-13T14:04:00Z</time>
      </trkpt>
      <trkpt lat="42.760200" lon="-2.356450">
        <ele>1365.0</ele>
        <time>2013-04-13T14:04:10Z</time>
      </trkpt>
      <trkpt lat="42.760667" lon="-2.357050">
        <ele>1370.0</ele>
        <time>2013-04-13T14:04:20Z</time>
      </trkpt>
      <trkpt lat="42.761117" lon="-2.356317">
        <ele>1377.0</ele>
        <time>2013-04-13T14:04:30Z</time>
      </trkpt>
      <trkpt lat="42.760950" lon="-2.355633">
        <ele>1382.0</ele>
        <time>2013-04-13T14:04:40Z</time>
      </trkpt>
      <trkpt lat="42.761650" lon="-2.355867">
        <ele>1387.0</ele>
        <time>2013-04-13T14:04:50Z</time>
      </trkpt>
      <trkpt lat="42.762217" lon="-2.354783">
        <ele>1390.0</ele>
        <time>2013-04-13T14:05:00Z</time>
      </trkpt>
      <trkpt lat="42.762783" lon="-2.353700">
        <ele>1388.0</ele>
        <time>2013-04-13T14:05:10Z</time>
      </trkpt>
      <trkpt lat="42.763117" lon="-2.352683">
        <ele>1383.0</ele>
        <time>2013-04-13T14:05:20Z</time>
      </trkpt>
      <trkpt lat="42.763450" lon="-2.351767">
        <ele>1375.0</ele>
        <time>2013-04-13T14:05:30Z</time>
      </trkpt>
      <trkpt lat="42.763750" lon="-2.350967">
        <ele>1371.0</ele>
        <time>2013-04-13T14:05:40Z</time>
      </trkpt>
      <trkpt lat="42.763950" lon="-2.350100">
        <ele>1366.0</ele>
        <time>2013-04-13T14:05:50Z</time>
      </trkpt>
      <trkpt lat="42.764150" lon="-2.349233">
        <ele>1360.0</ele>
        <time>2013-04-13T14:06:00Z</time>
      </trkpt>
      <trkpt lat="42.764467" lon="-2.348233">
        <ele>1356.0</ele>
        <time>2013-04-13T14:06:10Z</time>
      </trkpt>
      <trkpt lat="42.764767" lon="-2.347267">
        <ele>1352.0</ele>
        <time>2013-04-13T14:06:20Z</time>
      </trkpt>
      <trkpt lat="42.765167" lon="-2.346317">
        <ele>1346.0</ele>
        <time>2013-04-13T14:06:30Z</time>
      </trkpt>
      <trkpt lat="42.765550" lon="-2.345367">
        <ele>1339.0</ele>
        <time>2013-04-13T14:06:40Z</time>
      </trkpt>
      <trkpt lat="42.765733" lon="-2.344567">
        <ele>1337.0</ele>
        <time>2013-04-13T14:06:50Z</time>
      </trkpt>
      <trkpt lat="42.765867" lon="-2.343700">
        <ele>1340.0</ele>
        <time>2013-04-13T14:07:01Z</time>
      </trkpt>
      <trkpt lat="42.766083" lon="-2.342850">
        <ele>1343.0</ele>
        <time>2013-04-13T14:07:11Z</time>
      </trkpt>
      <trkpt lat="42.766450" lon="-2.341950">
        <ele>1346.0</ele>
        <time>2013-04-13T14:07:21Z</time>
      </trkpt>
      <trkpt lat="42.766767" lon="-2.341100">
        <ele>1349.0</ele>
        <time>2013-04-13T14:07:31Z</time>
      </trkpt>
      <trkpt lat="42.767017" lon="-2.340267">
        <ele>1349.0</ele>
        <time>2013-04-13T14:07:41Z</time>
      </trkpt>
      <trkpt lat="42.767283" lon="-2.339400">
        <ele>1347.0</ele>
        <time>2013-04-13T14:07:51Z</time>
      </trkpt>
      <trkpt lat="42.767533" lon="-2.338700">
        <ele>1341.0</ele>
        <time>2013-04-13T14:08:01Z</time>
      </trkpt>
      <trkpt lat="42.767817" lon="-2.338050">
        <ele>1334.0</ele>
        <time>2013-04-13T14:08:11Z</time>
      </trkpt>
      <trkpt lat="42.768150" lon="-2.337400">
        <ele>1327.0</ele>
        <time>2013-04-13T14:08:21Z</time>
      </trkpt>
      <trkpt lat="42.768633" lon="-2.336800">
        <ele>1322.0</ele>
        <time>2013-04-13T14:08:31Z</time>
      </trkpt>
      <trkpt lat="42.769133" lon="-2.336217">
        <ele>1317.0</ele>
        <time>2013-04-13T14:08:41Z</time>
      </trkpt>
      <trkpt lat="42.769750" lon="-2.335500">
        <ele>1315.0</ele>
        <time>2013-04-13T14:08:51Z</time>
      </trkpt>
      <trkpt lat="42.770350" lon="-2.334767">
        <ele>1314.0</ele>
        <time>2013-04-13T14:09:01Z</time>
      </trkpt>
      <trkpt lat="42.771217" lon="-2.334083">
        <ele>1311.0</ele>
        <time>2013-04-13T14:09:11Z</time>
      </trkpt>
      <trkpt lat="42.771433" lon="-2.333433">
        <ele>1306.0</ele>
        <time>2013-04-13T14:09:21Z</time>
      </trkpt>
      <trkpt lat="42.771600" lon="-2.332683">
        <ele>1299.0</ele>
        <time>2013-04-13T14:09:31Z</time>
      </trkpt>
      <trkpt lat="42.771833" lon="-2.331883">
        <ele>1290.0</ele>
        <time>2013-04-13T14:09:41Z</time>
      </trkpt>
      <trkpt lat="42.772167" lon="-2.331050">
        <ele>1279.0</ele>
        <time>2013-04-13T14:09:51Z</time>
      </trkpt>
      <trkpt lat="42.772633" lon="-2.330233">
        <ele>1269.0</ele>
        <time>2013-04-13T14:10:01Z</time>
      </trkpt>
      <trkpt lat="42.772983" lon="-2.329333">
        <ele>1259.0</ele>
        <time>2013-04-13T14:10:11Z</time>
      </trkpt>
      <trkpt lat="42.773217" lon="-2.328533">
        <ele>1250.0</ele>
        <time>2013-04-13T14:10:21Z</time>
      </trkpt>
      <trkpt lat="42.773350" lon="-2.327633">
        <ele>1246.0</ele>
        <time>2013-04-13T14:10:31Z</time>
      </trkpt>
      <trkpt lat="42.773483" lon="-2.326667">
        <ele>1246.0</ele>
        <time>2013-04-13T14:10:41Z</time>
      </trkpt>
      <trkpt lat="42.773483" lon="-2.325833">
        <ele>1255.0</ele>
        <time>2013-04-13T14:10:51Z</time>
      </trkpt>
      <trkpt lat="42.773400" lon="-2.325283">
        <ele>1265.0</ele>
        <time>2013-04-13T14:11:01Z</time>
      </trkpt>
      <trkpt lat="42.774067" lon="-2.325167">
        <ele>1282.0</ele>
        <time>2013-04-13T14:11:11Z</time>
      </trkpt>
      <trkpt lat="42.774133" lon="-2.324350">
        <ele>1294.0</ele>
        <time>2013-04-13T14:11:21Z</time>
      </trkpt>
      <trkpt lat="42.774083" lon="-2.323617">
        <ele>1306.0</ele>
        <time>2013-04-13T14:11:31Z</time>
      </trkpt>
      <trkpt lat="42.774067" lon="-2.322783">
        <ele>1316.0</ele>
        <time>2013-04-13T14:11:41Z</time>
      </trkpt>
      <trkpt lat="42.774150" lon="-2.321967">
        <ele>1319.0</ele>
        <time>2013-04-13T14:11:51Z</time>
      </trkpt>
      <trkpt lat="42.774233" lon="-2.321233">
        <ele>1316.0</ele>
        <time>2013-04-13T14:12:01Z</time>
      </trkpt>
      <trkpt lat="42.774233" lon="-2.320450">
        <ele>1312.0</ele>
        <time>2013-04-13T14:12:11Z</time>
      </trkpt>
      <trkpt lat="42.774233" lon="-2.319733">
        <ele>1306.0</ele>
        <time>2013-04-13T14:12:21Z</time>
      </trkpt>
      <trkpt lat="42.774200" lon="-2.319167">
        <ele>1303.0</ele>
        <time>2013-04-13T14:12:31Z</time>
      </trkpt>
      <trkpt lat="42.774100" lon="-2.318700">
        <ele>1301.0</ele>
        <time>2013-04-13T14:12:41Z</time>
      </trkpt>
      <trkpt lat="42.774017" lon="-2.318300">
        <ele>1301.0</ele>
        <time>2013-04-13T14:12:51Z</time>
      </trkpt>
      <trkpt lat="42.773883" lon="-2.317833">
        <ele>1305.0</ele>
        <time>2013-04-13T14:13:01Z</time>
      </trkpt>
      <trkpt lat="42.774117" lon="-2.318467">
        <ele>1314.0</ele>
        <time>2013-04-13T14:13:11Z</time>
      </trkpt>
      <trkpt lat="42.774333" lon="-2.317933">
        <ele>1323.0</ele>
        <time>2013-04-13T14:13:21Z</time>
      </trkpt>
      <trkpt lat="42.774467" lon="-2.318317">
        <ele>1337.0</ele>
        <time>2013-04-13T14:13:31Z</time>
      </trkpt>
      <trkpt lat="42.774800" lon="-2.317817">
        <ele>1351.0</ele>
        <time>2013-04-13T14:13:41Z</time>
      </trkpt>
      <trkpt lat="42.774767" lon="-2.317083">
        <ele>1364.0</ele>
        <time>2013-04-13T14:13:51Z</time>
      </trkpt>
      <trkpt lat="42.774767" lon="-2.316517">
        <ele>1373.0</ele>
        <time>2013-04-13T14:14:01Z</time>
      </trkpt>
      <trkpt lat="42.774783" lon="-2.316200">
        <ele>1378.0</ele>
        <time>2013-04-13T14:14:11Z</time>
      </trkpt>
      <trkpt lat="42.774750" lon="-2.315867">
        <ele>1379.0</ele>
        <time>2013-04-13T14:14:21Z</time>
      </trkpt>
      <trkpt lat="42.774717" lon="-2.315333">
        <ele>1378.0</ele>
        <time>2013-04-13T14:14:31Z</time>
      </trkpt>
      <trkpt lat="42.774633" lon="-2.314867">
        <ele>1374.0</ele>
        <time>2013-04-13T14:14:41Z</time>
      </trkpt>
      <trkpt lat="42.774617" lon="-2.314350">
        <ele>1364.0</ele>
        <time>2013-04-13T14:14:51Z</time>
      </trkpt>
      <trkpt lat="42.774517" lon="-2.313767">
        <ele>1352.0</ele>
        <time>2013-04-13T14:15:01Z</time>
      </trkpt>
      <trkpt lat="42.774483" lon="-2.313567">
        <ele>1337.0</ele>
        <time>2013-04-13T14:15:11Z</time>
      </trkpt>
      <trkpt lat="42.774433" lon="-2.313233">
        <ele>1323.0</ele>
        <time>2013-04-13T14:15:22Z</time>
      </trkpt>
      <trkpt lat="42.774300" lon="-2.313067">
        <ele>1311.0</ele>
        <time>2013-04-13T14:15:32Z</time>
      </trkpt>
      <trkpt lat="42.774250" lon="-2.312600">
        <ele>1302.0</ele>
        <time>2013-04-13T14:15:42Z</time>
      </trkpt>
      <trkpt lat="42.774317" lon="-2.312067">
        <ele>1297.0</ele>
        <time>2013-04-13T14:15:52Z</time>
      </trkpt>
      <trkpt lat="42.774300" lon="-2.311567">
        <ele>1296.0</ele>
        <time>2013-04-13T14:16:02Z</time>
      </trkpt>
      <trkpt lat="42.774267" lon="-2.311100">
        <ele>1296.0</ele>
        <time>2013-04-13T14:16:12Z</time>
      </trkpt>
      <trkpt lat="42.774217" lon="-2.310533">
        <ele>1298.0</ele>
        <time>2013-04-13T14:16:22Z</time>
      </trkpt>
      <trkpt lat="42.774067" lon="-2.309967">
        <ele>1300.0</ele>
        <time>2013-04-13T14:16:32Z</time>
      </trkpt>
      <trkpt lat="42.774000" lon="-2.309417">
        <ele>1300.0</ele>
        <time>2013-04-13T14:16:42Z</time>
      </trkpt>
      <trkpt lat="42.773950" lon="-2.308883">
        <ele>1298.0</ele>
        <time>2013-04-13T14:16:52Z</time>
      </trkpt>
      <trkpt lat="42.773850" lon="-2.308433">
        <ele>1294.0</ele>
        <time>2013-04-13T14:17:02Z</time>
      </trkpt>
      <trkpt lat="42.773833" lon="-2.307850">
        <ele>1290.0</ele>
        <time>2013-04-13T14:17:12Z</time>
      </trkpt>
      <trkpt lat="42.773700" lon="-2.307267">
        <ele>1286.0</ele>
        <time>2013-04-13T14:17:22Z</time>
      </trkpt>
      <trkpt lat="42.773717" lon="-2.306683">
        <ele>1283.0</ele>
        <time>2013-04-13T14:17:32Z</time>
      </trkpt>
      <trkpt lat="42.773833" lon="-2.305967">
        <ele>1278.0</ele>
        <time>2013-04-13T14:17:42Z</time>
      </trkpt>
      <trkpt lat="42.774067" lon="-2.305250">
        <ele>1271.0</ele>
        <time>2013-04-13T14:17:52Z</time>
      </trkpt>
      <trkpt lat="42.774333" lon="-2.304550">
        <ele>1265.0</ele>
        <time>2013-04-13T14:18:02Z</time>
      </trkpt>
      <trkpt lat="42.774667" lon="-2.303850">
        <ele>1261.0</ele>
        <time>2013-04-13T14:18:12Z</time>
      </trkpt>
      <trkpt lat="42.774767" lon="-2.303583">
        <ele>1261.0</ele>
        <time>2013-04-13T14:18:22Z</time>
      </trkpt>
      <trkpt lat="42.774750" lon="-2.304500">
        <ele>1263.0</ele>
        <time>2013-04-13T14:18:32Z</time>
      </trkpt>
      <trkpt lat="42.774733" lon="-2.304250">
        <ele>1266.0</ele>
        <time>2013-04-13T14:18:42Z</time>
      </trkpt>
      <trkpt lat="42.774733" lon="-2.305383">
        <ele>1274.0</ele>
        <time>2013-04-13T14:18:52Z</time>
      </trkpt>
      <trkpt lat="42.774583" lon="-2.305633">
        <ele>1277.0</ele>
        <time>2013-04-13T14:19:02Z</time>
      </trkpt>
      <trkpt lat="42.774667" lon="-2.305217">
        <ele>1279.0</ele>
        <time>2013-04-13T14:19:12Z</time>
      </trkpt>
      <trkpt lat="42.774800" lon="-2.304400">
        <ele>1280.0</ele>
        <time>2013-04-13T14:19:22Z</time>
      </trkpt>
      <trkpt lat="42.775150" lon="-2.303450">
        <ele>1275.0</ele>
        <time>2013-04-13T14:19:32Z</time>
      </trkpt>
      <trkpt lat="42.775500" lon="-2.302467">
        <ele>1270.0</ele>
        <time>2013-04-13T14:19:42Z</time>
      </trkpt>
      <trkpt lat="42.775783" lon="-2.301517">
        <ele>1264.0</ele>
        <time>2013-04-13T14:19:52Z</time>
      </trkpt>
      <trkpt lat="42.776000" lon="-2.300767">
        <ele>1257.0</ele>
        <time>2013-04-13T14:20:02Z</time>
      </trkpt>
      <trkpt lat="42.776300" lon="-2.299950">
        <ele>1250.0</ele>
        <time>2013-04-13T14:20:12Z</time>
      </trkpt>
      <trkpt lat="42.776717" lon="-2.299083">
        <ele>1243.0</ele>
        <time>2013-04-13T14:20:22Z</time>
      </trkpt>
      <trkpt lat="42.777167" lon="-2.298283">
        <ele>1236.0</ele>
        <time>2013-04-13T14:20:32Z</time>
      </trkpt>
      <trkpt lat="42.777533" lon="-2.297483">
        <ele>1226.0</ele>
        <time>2013-04-13T14:20:42Z</time>
      </trkpt>
      <trkpt lat="42.777833" lon="-2.296783">
        <ele>1217.0</ele>
        <time>2013-04-13T14:20:52Z</time>
      </trkpt>
      <trkpt lat="42.778100" lon="-2.296133">
        <ele>1207.0</ele>
        <time>2013-04-13T14:21:02Z</time>
      </trkpt>
      <trkpt lat="42.778500" lon="-2.295400">
        <ele>1196.0</ele>
        <time>2013-04-13T14:21:12Z</time>
      </trkpt>
      <trkpt lat="42.778833" lon="-2.294533">
        <ele>1184.0</ele>
        <time>2013-04-13T14:21:22Z</time>
      </trkpt>
      <trkpt lat="42.779200" lon="-2.293700">
        <ele>1174.0</ele>
        <time>2013-04-13T14:21:32Z</time>
      </trkpt>
      <trkpt lat="42.779483" lon="-2.292833">
        <ele>1167.0</ele>
        <time>2013-04-13T14:21:42Z</time>
      </trkpt>
      <trkpt lat="42.779717" lon="-2.291983">
        <ele>1165.0</ele>
        <time>2013-04-13T14:21:52Z</time>
      </trkpt>
      <trkpt lat="42.779867" lon="-2.290933">
        <ele>1163.0</ele>
        <time>2013-04-13T14:22:02Z</time>
      </trkpt>
      <trkpt lat="42.780233" lon="-2.289817">
        <ele>1160.0</ele>
        <time>2013-04-13T14:22:12Z</time>
      </trkpt>
      <trkpt lat="42.780550" lon="-2.288917">
        <ele>1159.0</ele>
        <time>2013-04-13T14:22:22Z</time>
      </trkpt>
      <trkpt lat="42.780800" lon="-2.288267">
        <ele>1157.0</ele>
        <time>2013-04-13T14:22:32Z</time>
      </trkpt>
      <trkpt lat="42.781083" lon="-2.287600">
        <ele>1150.0</ele>
        <time>2013-04-13T14:22:42Z</time>
      </trkpt>
      <trkpt lat="42.781467" lon="-2.287000">
        <ele>1140.0</ele>
        <time>2013-04-13T14:22:52Z</time>
      </trkpt>
      <trkpt lat="42.781767" lon="-2.286233">
        <ele>1124.0</ele>
        <time>2013-04-13T14:23:02Z</time>
      </trkpt>
      <trkpt lat="42.781933" lon="-2.285633">
        <ele>1111.0</ele>
        <time>2013-04-13T14:23:12Z</time>
      </trkpt>
      <trkpt lat="42.782067" lon="-2.284867">
        <ele>1090.0</ele>
        <time>2013-04-13T14:23:23Z</time>
      </trkpt>
      <trkpt lat="42.782250" lon="-2.284467">
        <ele>1078.0</ele>
        <time>2013-04-13T14:23:33Z</time>
      </trkpt>
      <trkpt lat="42.782433" lon="-2.284050">
        <ele>1068.0</ele>
        <time>2013-04-13T14:23:43Z</time>
      </trkpt>
      <trkpt lat="42.782517" lon="-2.283650">
        <ele>1059.0</ele>
        <time>2013-04-13T14:23:53Z</time>
      </trkpt>
      <trkpt lat="42.782550" lon="-2.283183">
        <ele>1053.0</ele>
        <time>2013-04-13T14:24:03Z</time>
      </trkpt>
      <trkpt lat="42.782817" lon="-2.282600">
        <ele>1051.0</ele>
        <time>2013-04-13T14:24:13Z</time>
      </trkpt>
      <trkpt lat="42.783267" lon="-2.281817">
        <ele>1053.0</ele>
        <time>2013-04-13T14:24:23Z</time>
      </trkpt>
      <trkpt lat="42.783317" lon="-2.281467">
        <ele>1057.0</ele>
        <time>2013-04-13T14:24:33Z</time>
      </trkpt>
      <trkpt lat="42.783417" lon="-2.281133">
        <ele>1067.0</ele>
        <time>2013-04-13T14:24:43Z</time>
      </trkpt>
      <trkpt lat="42.783400" lon="-2.280883">
        <ele>1079.0</ele>
        <time>2013-04-13T14:24:53Z</time>
      </trkpt>
      <trkpt lat="42.783350" lon="-2.280683">
        <ele>1096.0</ele>
        <time>2013-04-13T14:25:03Z</time>
      </trkpt>
      <trkpt lat="42.783433" lon="-2.280383">
        <ele>1111.0</ele>
        <time>2013-04-13T14:25:13Z</time>
      </trkpt>
      <trkpt lat="42.783783" lon="-2.281267">
        <ele>1137.0</ele>
        <time>2013-04-13T14:25:23Z</time>
      </trkpt>
      <trkpt lat="42.784183" lon="-2.280833">
        <ele>1156.0</ele>
        <time>2013-04-13T14:25:33Z</time>
      </trkpt>
      <trkpt lat="42.784200" lon="-2.280517">
        <ele>1174.0</ele>
        <time>2013-04-13T14:25:43Z</time>
      </trkpt>
      <trkpt lat="42.784900" lon="-2.281233">
        <ele>1206.0</ele>
        <time>2013-04-13T14:25:53Z</time>
      </trkpt>
      <trkpt lat="42.785133" lon="-2.281050">
        <ele>1225.0</ele>
        <time>2013-04-13T14:26:03Z</time>
      </trkpt>
      <trkpt lat="42.785133" lon="-2.280817">
        <ele>1242.0</ele>
        <time>2013-04-13T14:26:13Z</time>
      </trkpt>
      <trkpt lat="42.785150" lon="-2.280983">
        <ele>1265.0</ele>
        <time>2013-04-13T14:26:23Z</time>
      </trkpt>
      <trkpt lat="42.784983" lon="-2.281100">
        <ele>1280.0</ele>
        <time>2013-04-13T14:26:33Z</time>
      </trkpt>
      <trkpt lat="42.784867" lon="-2.280783">
        <ele>1292.0</ele>
        <time>2013-04-13T14:26:43Z</time>
      </trkpt>
      <trkpt lat="42.784950" lon="-2.280217">
        <ele>1301.0</ele>
        <time>2013-04-13T14:26:53Z</time>
      </trkpt>
      <trkpt lat="42.785067" lon="-2.279517">
        <ele>1311.0</ele>
        <time>2013-04-13T14:27:03Z</time>
      </trkpt>
      <trkpt lat="42.785017" lon="-2.279267">
        <ele>1321.0</ele>
        <time>2013-04-13T14:27:13Z</time>
      </trkpt>
      <trkpt lat="42.785717" lon="-2.279433">
        <ele>1339.0</ele>
        <time>2013-04-13T14:27:23Z</time>
      </trkpt>
      <trkpt lat="42.785817" lon="-2.278850">
        <ele>1350.0</ele>
        <time>2013-04-13T14:27:33Z</time>
      </trkpt>
      <trkpt lat="42.786267" lon="-2.279333">
        <ele>1367.0</ele>
        <time>2013-04-13T14:27:43Z</time>
      </trkpt>
      <trkpt lat="42.786433" lon="-2.278767">
        <ele>1378.0</ele>
        <time>2013-04-13T14:27:53Z</time>
      </trkpt>
      <trkpt lat="42.786417" lon="-2.278233">
        <ele>1389.0</ele>
        <time>2013-04-13T14:28:03Z</time>
      </trkpt>
      <trkpt lat="42.786567" lon="-2.277683">
        <ele>1401.0</ele>
        <time>2013-04-13T14:28:13Z</time>
      </trkpt>
      <trkpt lat="42.786583" lon="-2.277100">
        <ele>1411.0</ele>
        <time>2013-04-13T14:28:23Z</time>
      </trkpt>
      <trkpt lat="42.786517" lon="-2.276500">
        <ele>1420.0</ele>
        <time>2013-04-13T14:28:33Z</time>
      </trkpt>
      <trkpt lat="42.786350" lon="-2.275983">
        <ele>1426.0</ele>
        <time>2013-04-13T14:28:43Z</time>
      </trkpt>
      <trkpt lat="42.786350" lon="-2.275500">
        <ele>1429.0</ele>
        <time>2013-04-13T14:28:53Z</time>
      </trkpt>
      <trkpt lat="42.786467" lon="-2.275000">
        <ele>1428.0</ele>
        <time>2013-04-13T14:29:03Z</time>
      </trkpt>
      <trkpt lat="42.786583" lon="-2.274517">
        <ele>1422.0</ele>
        <time>2013-04-13T14:29:13Z</time>
      </trkpt>
      <trkpt lat="42.786667" lon="-2.273900">
        <ele>1411.0</ele>
        <time>2013-04-13T14:29:23Z</time>
      </trkpt>
      <trkpt lat="42.786717" lon="-2.273367">
        <ele>1398.0</ele>
        <time>2013-04-13T14:29:33Z</time>
      </trkpt>
      <trkpt lat="42.786733" lon="-2.272800">
        <ele>1384.0</ele>
        <time>2013-04-13T14:29:43Z</time>
      </trkpt>
      <trkpt lat="42.786717" lon="-2.272033">
        <ele>1367.0</ele>
        <time>2013-04-13T14:29:53Z</time>
      </trkpt>
      <trkpt lat="42.786650" lon="-2.271200">
        <ele>1357.0</ele>
        <time>2013-04-13T14:30:03Z</time>
      </trkpt>
      <trkpt lat="42.786550" lon="-2.270433">
        <ele>1352.0</ele>
        <time>2013-04-13T14:30:13Z</time>
      </trkpt>
      <trkpt lat="42.786467" lon="-2.269650">
        <ele>1345.0</ele>
        <time>2013-04-13T14:30:23Z</time>
      </trkpt>
      <trkpt lat="42.786450" lon="-2.269017">
        <ele>1339.0</ele>
        <time>2013-04-13T14:30:33Z</time>
      </trkpt>
      <trkpt lat="42.786283" lon="-2.268633">
        <ele>1334.0</ele>
        <time>2013-04-13T14:30:43Z</time>
      </trkpt>
      <trkpt lat="42.786167" lon="-2.268283">
        <ele>1329.0</ele>
        <time>2013-04-13T14:30:53Z</time>
      </trkpt>
      <trkpt lat="42.786083" lon="-2.267800">
        <ele>1324.0</ele>
        <time>2013-04-13T14:31:03Z</time>
      </trkpt>
      <trkpt lat="42.785983" lon="-2.267250">
        <ele>1315.0</ele>
        <time>2013-04-13T14:31:13Z</time>
      </trkpt>
      <trkpt lat="42.785883" lon="-2.266700">
        <ele>1306.0</ele>
        <time>2013-04-13T14:31:23Z</time>
      </trkpt>
      <trkpt lat="42.785817" lon="-2.266167">
        <ele>1296.0</ele>
        <time>2013-04-13T14:31:33Z</time>
      </trkpt>
      <trkpt lat="42.785783" lon="-2.265533">
        <ele>1286.0</ele>
        <time>2013-04-13T14:31:43Z</time>
      </trkpt>
      <trkpt lat="42.785667" lon="-2.264867">
        <ele>1276.0</ele>
        <time>2013-04-13T14:31:54Z</time>
      </trkpt>
      <trkpt lat="42.785633" lon="-2.264217">
        <ele>1263.0</ele>
        <time>2013-04-13T14:32:04Z</time>
      </trkpt>
      <trkpt lat="42.785617" lon="-2.263683">
        <ele>1252.0</ele>
        <time>2013-04-13T14:32:14Z</time>
      </trkpt>
      <trkpt lat="42.785550" lon="-2.263117">
        <ele>1238.0</ele>
        <time>2013-04-13T14:32:24Z</time>
      </trkpt>
      <trkpt lat="42.785483" lon="-2.262633">
        <ele>1228.0</ele>
        <time>2013-04-13T14:32:34Z</time>
      </trkpt>
      <trkpt lat="42.785400" lon="-2.262017">
        <ele>1217.0</ele>
        <time>2013-04-13T14:32:44Z</time>
      </trkpt>
      <trkpt lat="42.785333" lon="-2.261517">
        <ele>1207.0</ele>
        <time>2013-04-13T14:32:54Z</time>
      </trkpt>
      <trkpt lat="42.785250" lon="-2.261050">
        <ele>1198.0</ele>
        <time>2013-04-13T14:33:04Z</time>
      </trkpt>
      <trkpt lat="42.785200" lon="-2.260567">
        <ele>1189.0</ele>
        <time>2013-04-13T14:33:14Z</time>
      </trkpt>
      <trkpt lat="42.785117" lon="-2.260033">
        <ele>1180.0</ele>
        <time>2013-04-13T14:33:24Z</time>
      </trkpt>
      <trkpt lat="42.785000" lon="-2.259583">
        <ele>1172.0</ele>
        <time>2013-04-13T14:33:34Z</time>
      </trkpt>
      <trkpt lat="42.784917" lon="-2.259183">
        <ele>1164.0</ele>
        <time>2013-04-13T14:33:44Z</time>
      </trkpt>
      <trkpt lat="42.784900" lon="-2.258800">
        <ele>1157.0</ele>
        <time>2013-04-13T14:33:54Z</time>
      </trkpt>
      <trkpt lat="42.784817" lon="-2.258417">
        <ele>1152.0</ele>
        <time>2013-04-13T14:34:04Z</time>
      </trkpt>
      <trkpt lat="42.784800" lon="-2.258133">
        <ele>1148.0</ele>
        <time>2013-04-13T14:34:14Z</time>
      </trkpt>
      <trkpt lat="42.784633" lon="-2.257867">
        <ele>1145.0</ele>
        <time>2013-04-13T14:34:24Z</time>
      </trkpt>
      <trkpt lat="42.784500" lon="-2.257550">
        <ele>1143.0</ele>
        <time>2013-04-13T14:34:34Z</time>
      </trkpt>
      <trkpt lat="42.784350" lon="-2.257083">
        <ele>1141.0</ele>
        <time>2013-04-13T14:34:44Z</time>
      </trkpt>
      <trkpt lat="42.784200" lon="-2.256600">
        <ele>1138.0</ele>
        <time>2013-04-13T14:34:54Z</time>
      </trkpt>
      <trkpt lat="42.784033" lon="-2.256167">
        <ele>1133.0</ele>
        <time>2013-04-13T14:35:04Z</time>
      </trkpt>
      <trkpt lat="42.783867" lon="-2.255733">
        <ele>1128.0</ele>
        <time>2013-04-13T14:35:14Z</time>
      </trkpt>
      <trkpt lat="42.783717" lon="-2.255417">
        <ele>1124.0</ele>
        <time>2013-04-13T14:35:24Z</time>
      </trkpt>
      <trkpt lat="42.783583" lon="-2.255100">
        <ele>1122.0</ele>
        <time>2013-04-13T14:35:34Z</time>
      </trkpt>
      <trkpt lat="42.783483" lon="-2.254750">
        <ele>1121.0</ele>
        <time>2013-04-13T14:35:44Z</time>
      </trkpt>
      <trkpt lat="42.783433" lon="-2.254517">
        <ele>1123.0</ele>
        <time>2013-04-13T14:35:54Z</time>
      </trkpt>
      <trkpt lat="42.783350" lon="-2.254267">
        <ele>1123.0</ele>
        <time>2013-04-13T14:36:04Z</time>
      </trkpt>
      <trkpt lat="42.783267" lon="-2.253933">
        <ele>1123.0</ele>
        <time>2013-04-13T14:36:14Z</time>
      </trkpt>
      <trkpt lat="42.783133" lon="-2.253483">
        <ele>1121.0</ele>
        <time>2013-04-13T14:36:24Z</time>
      </trkpt>
      <trkpt lat="42.783033" lon="-2.252983">
        <ele>1117.0</ele>
        <time>2013-04-13T14:36:34Z</time>
      </trkpt>
      <trkpt lat="42.782900" lon="-2.252383">
        <ele>1111.0</ele>
        <time>2013-04-13T14:36:44Z</time>
      </trkpt>
      <trkpt lat="42.782917" lon="-2.251833">
        <ele>1109.0</ele>
        <time>2013-04-13T14:36:54Z</time>
      </trkpt>
      <trkpt lat="42.782900" lon="-2.251250">
        <ele>1105.0</ele>
        <time>2013-04-13T14:37:04Z</time>
      </trkpt>
      <trkpt lat="42.782833" lon="-2.250733">
        <ele>1104.0</ele>
        <time>2013-04-13T14:37:14Z</time>
      </trkpt>
      <trkpt lat="42.782717" lon="-2.250467">
        <ele>1104.0</ele>
        <time>2013-04-13T14:37:24Z</time>
      </trkpt>
      <trkpt lat="42.782667" lon="-2.250083">
        <ele>1103.0</ele>
        <time>2013-04-13T14:37:34Z</time>
      </trkpt>
      <trkpt lat="42.782717" lon="-2.249533">
        <ele>1100.0</ele>
        <time>2013-04-13T14:37:44Z</time>
      </trkpt>
      <trkpt lat="42.782917" lon="-2.248850">
        <ele>1094.0</ele>
        <time>2013-04-13T14:37:54Z</time>
      </trkpt>
      <trkpt lat="42.783200" lon="-2.248100">
        <ele>1089.0</ele>
        <time>2013-04-13T14:38:04Z</time>
      </trkpt>
      <trkpt lat="42.783383" lon="-2.247367">
        <ele>1084.0</ele>
        <time>2013-04-13T14:38:14Z</time>
      </trkpt>
      <trkpt lat="42.783650" lon="-2.246500">
        <ele>1078.0</ele>
        <time>2013-04-13T14:38:24Z</time>
      </trkpt>
      <trkpt lat="42.783667" lon="-2.246183">
        <ele>1074.0</ele>
        <time>2013-04-13T14:38:34Z</time>
      </trkpt>
      <trkpt lat="42.783683" lon="-2.246850">
        <ele>1072.0</ele>
        <time>2013-04-13T14:38:44Z</time>
      </trkpt>
      <trkpt lat="42.783517" lon="-2.247200">
        <ele>1072.0</ele>
        <time>2013-04-13T14:38:54Z</time>
      </trkpt>
      <trkpt lat="42.783367" lon="-2.247467">
        <ele>1073.0</ele>
        <time>2013-04-13T14:39:04Z</time>
      </trkpt>
      <trkpt lat="42.783167" lon="-2.247767">
        <ele>1077.0</ele>
        <time>2013-04-13T14:39:14Z</time>
      </trkpt>
      <trkpt lat="42.782900" lon="-2.247850">
        <ele>1082.0</ele>
        <time>2013-04-13T14:39:24Z</time>
      </trkpt>
      <trkpt lat="42.782583" lon="-2.247233">
        <ele>1089.0</ele>
        <time>2013-04-13T14:39:34Z</time>
      </trkpt>
      <trkpt lat="42.782183" lon="-2.246400">
        <ele>1093.0</ele>
        <time>2013-04-13T14:39:44Z</time>
      </trkpt>
      <trkpt lat="42.781967" lon="-2.245717">
        <ele>1098.0</ele>
        <time>2013-04-13T14:39:54Z</time>
      </trkpt>
      <trkpt lat="42.781683" lon="-2.245250">
        <ele>1102.0</ele>
        <time>2013-04-13T14:40:05Z</time>
      </trkpt>
      <trkpt lat="42.781933" lon="-2.245450">
        <ele>1111.0</ele>
        <time>2013-04-13T14:40:15Z</time>
      </trkpt>
      <trkpt lat="42.782150" lon="-2.244667">
        <ele>1121.0</ele>
        <time>2013-04-13T14:40:25Z</time>
      </trkpt>
      <trkpt lat="42.782033" lon="-2.244800">
        <ele>1130.0</ele>
        <time>2013-04-13T14:40:35Z</time>
      </trkpt>
      <trkpt lat="42.782600" lon="-2.244583">
        <ele>1139.0</ele>
        <time>2013-04-13T14:40:45Z</time>
      </trkpt>
      <trkpt lat="42.782483" lon="-2.244483">
        <ele>1146.0</ele>
        <time>2013-04-13T14:40:55Z</time>
      </trkpt>
      <trkpt lat="42.782333" lon="-2.244250">
        <ele>1153.0</ele>
        <time>2013-04-13T14:41:05Z</time>
      </trkpt>
      <trkpt lat="42.782083" lon="-2.244033">
        <ele>1161.0</ele>
        <time>2013-04-13T14:41:15Z</time>
      </trkpt>
      <trkpt lat="42.781800" lon="-2.243817">
        <ele>1168.0</ele>
        <time>2013-04-13T14:41:25Z</time>
      </trkpt>
      <trkpt lat="42.781517" lon="-2.243483">
        <ele>1173.0</ele>
        <time>2013-04-13T14:41:35Z</time>
      </trkpt>
      <trkpt lat="42.781200" lon="-2.243233">
        <ele>1176.0</ele>
        <time>2013-04-13T14:41:45Z</time>
      </trkpt>
      <trkpt lat="42.780867" lon="-2.242933">
        <ele>1180.0</ele>
        <time>2013-04-13T14:41:55Z</time>
      </trkpt>
      <trkpt lat="42.780517" lon="-2.242617">
        <ele>1183.0</ele>
        <time>2013-04-13T14:42:05Z</time>
      </trkpt>
      <trkpt lat="42.780217" lon="-2.242150">
        <ele>1185.0</ele>
        <time>2013-04-13T14:42:15Z</time>
      </trkpt>
      <trkpt lat="42.779917" lon="-2.241683">
        <ele>1185.0</ele>
        <time>2013-04-13T14:42:25Z</time>
      </trkpt>
      <trkpt lat="42.779533" lon="-2.241217">
        <ele>1182.0</ele>
        <time>2013-04-13T14:42:35Z</time>
      </trkpt>
      <trkpt lat="42.779300" lon="-2.240567">
        <ele>1179.0</ele>
        <time>2013-04-13T14:42:45Z</time>
      </trkpt>
      <trkpt lat="42.779183" lon="-2.239967">
        <ele>1180.0</ele>
        <time>2013-04-13T14:42:55Z</time>
      </trkpt>
      <trkpt lat="42.779017" lon="-2.239450">
        <ele>1181.0</ele>
        <time>2013-04-13T14:43:05Z</time>
      </trkpt>
      <trkpt lat="42.778833" lon="-2.238750">
        <ele>1180.0</ele>
        <time>2013-04-13T14:43:15Z</time>
      </trkpt>
      <trkpt lat="42.778750" lon="-2.237983">
        <ele>1183.0</ele>
        <time>2013-04-13T14:43:25Z</time>
      </trkpt>
      <trkpt lat="42.778700" lon="-2.237133">
        <ele>1187.0</ele>
        <time>2013-04-13T14:43:35Z</time>
      </trkpt>
      <trkpt lat="42.778750" lon="-2.236300">
        <ele>1186.0</ele>
        <time>2013-04-13T14:43:45Z</time>
      </trkpt>
      <trkpt lat="42.778683" lon="-2.235550">
        <ele>1178.0</ele>
        <time>2013-04-13T14:43:55Z</time>
      </trkpt>
      <trkpt lat="42.778783" lon="-2.234667">
        <ele>1164.0</ele>
        <time>2013-04-13T14:44:05Z</time>
      </trkpt>
      <trkpt lat="42.778867" lon="-2.233750">
        <ele>1149.0</ele>
        <time>2013-04-13T14:44:15Z</time>
      </trkpt>
      <trkpt lat="42.778950" lon="-2.232983">
        <ele>1132.0</ele>
        <time>2013-04-13T14:44:25Z</time>
      </trkpt>
      <trkpt lat="42.779100" lon="-2.232200">
        <ele>1120.0</ele>
        <time>2013-04-13T14:44:35Z</time>
      </trkpt>
      <trkpt lat="42.779267" lon="-2.231500">
        <ele>1114.0</ele>
        <time>2013-04-13T14:44:45Z</time>
      </trkpt>
      <trkpt lat="42.779417" lon="-2.230833">
        <ele>1107.0</ele>
        <time>2013-04-13T14:44:55Z</time>
      </trkpt>
      <trkpt lat="42.779550" lon="-2.230233">
        <ele>1102.0</ele>
        <time>2013-04-13T14:45:05Z</time>
      </trkpt>
      <trkpt lat="42.779617" lon="-2.229500">
        <ele>1102.0</ele>
        <time>2013-04-13T14:45:15Z</time>
      </trkpt>
      <trkpt lat="42.779483" lon="-2.228883">
        <ele>1107.0</ele>
        <time>2013-04-13T14:45:25Z</time>
      </trkpt>
      <trkpt lat="42.779417" lon="-2.228233">
        <ele>1118.0</ele>
        <time>2013-04-13T14:45:35Z</time>
      </trkpt>
      <trkpt lat="42.779467" lon="-2.227350">
        <ele>1132.0</ele>
        <time>2013-04-13T14:45:45Z</time>
      </trkpt>
      <trkpt lat="42.779567" lon="-2.226433">
        <ele>1143.0</ele>
        <time>2013-04-13T14:45:55Z</time>
      </trkpt>
      <trkpt lat="42.779617" lon="-2.225567">
        <ele>1149.0</ele>
        <time>2013-04-13T14:46:05Z</time>
      </trkpt>
      <trkpt lat="42.779633" lon="-2.225217">
        <ele>1152.0</ele>
        <time>2013-04-13T14:46:15Z</time>
      </trkpt>
      <trkpt lat="42.779667" lon="-2.224933">
        <ele>1156.0</ele>
        <time>2013-04-13T14:46:25Z</time>
      </trkpt>
      <trkpt lat="42.779567" lon="-2.224550">
        <ele>1160.0</ele>
        <time>2013-04-13T14:46:35Z</time>
      </trkpt>
      <trkpt lat="42.779517" lon="-2.224200">
        <ele>1169.0</ele>
        <time>2013-04-13T14:46:45Z</time>
      </trkpt>
      <trkpt lat="42.779467" lon="-2.223817">
        <ele>1181.0</ele>
        <time>2013-04-13T14:46:55Z</time>
      </trkpt>
      <trkpt lat="42.779383" lon="-2.223383">
        <ele>1195.0</ele>
        <time>2013-04-13T14:47:05Z</time>
      </trkpt>
      <trkpt lat="42.779383" lon="-2.222817">
        <ele>1210.0</ele>
        <time>2013-04-13T14:47:15Z</time>
      </trkpt>
      <trkpt lat="42.779467" lon="-2.222050">
        <ele>1236.0</ele>
        <time>2013-04-13T14:47:25Z</time>
      </trkpt>
      <trkpt lat="42.779567" lon="-2.221533">
        <ele>1249.0</ele>
        <time>2013-04-13T14:47:35Z</time>
      </trkpt>
      <trkpt lat="42.779750" lon="-2.220750">
        <ele>1267.0</ele>
        <time>2013-04-13T14:47:45Z</time>
      </trkpt>
      <trkpt lat="42.779683" lon="-2.220233">
        <ele>1276.0</ele>
        <time>2013-04-13T14:47:55Z</time>
      </trkpt>
      <trkpt lat="42.779483" lon="-2.219683">
        <ele>1282.0</ele>
        <time>2013-04-13T14:48:06Z</time>
      </trkpt>
      <trkpt lat="42.779333" lon="-2.219233">
        <ele>1284.0</ele>
        <time>2013-04-13T14:48:16Z</time>
      </trkpt>
      <trkpt lat="42.779150" lon="-2.218767">
        <ele>1280.0</ele>
        <time>2013-04-13T14:48:26Z</time>
      </trkpt>
      <trkpt lat="42.778950" lon="-2.218350">
        <ele>1273.0</ele>
        <time>2013-04-13T14:48:36Z</time>
      </trkpt>
      <trkpt lat="42.778700" lon="-2.217783">
        <ele>1256.0</ele>
        <time>2013-04-13T14:48:46Z</time>
      </trkpt>
      <trkpt lat="42.778550" lon="-2.217300">
        <ele>1245.0</ele>
        <time>2013-04-13T14:48:56Z</time>
      </trkpt>
      <trkpt lat="42.778500" lon="-2.216833">
        <ele>1232.0</ele>
        <time>2013-04-13T14:49:06Z</time>
      </trkpt>
      <trkpt lat="42.778500" lon="-2.216200">
        <ele>1214.0</ele>
        <time>2013-04-13T14:49:16Z</time>
      </trkpt>
      <trkpt lat="42.778433" lon="-2.215633">
        <ele>1199.0</ele>
        <time>2013-04-13T14:49:26Z</time>
      </trkpt>
      <trkpt lat="42.778300" lon="-2.215167">
        <ele>1182.0</ele>
        <time>2013-04-13T14:49:36Z</time>
      </trkpt>
      <trkpt lat="42.778150" lon="-2.214633">
        <ele>1162.0</ele>
        <time>2013-04-13T14:49:46Z</time>
      </trkpt>
      <trkpt lat="42.777967" lon="-2.214050">
        <ele>1146.0</ele>
        <time>2013-04-13T14:49:56Z</time>
      </trkpt>
      <trkpt lat="42.777817" lon="-2.213367">
        <ele>1125.0</ele>
        <time>2013-04-13T14:50:06Z</time>
      </trkpt>
      <trkpt lat="42.777667" lon="-2.212767">
        <ele>1116.0</ele>
        <time>2013-04-13T14:50:16Z</time>
      </trkpt>
      <trkpt lat="42.777500" lon="-2.212317">
        <ele>1110.0</ele>
        <time>2013-04-13T14:50:26Z</time>
      </trkpt>
      <trkpt lat="42.777317" lon="-2.211917">
        <ele>1103.0</ele>
        <time>2013-04-13T14:50:36Z</time>
      </trkpt>
      <trkpt lat="42.777267" lon="-2.211750">
        <ele>1099.0</ele>
        <time>2013-04-13T14:50:41Z</time>
      </trkpt>
      <trkpt lat="42.777267" lon="-2.211700">
        <ele>1098.0</ele>
        <time>2013-04-13T14:50:42Z</time>
      </trkpt>
      <trkpt lat="42.777200" lon="-2.211250">
        <ele>1090.0</ele>
        <time>2013-04-13T14:50:52Z</time>
      </trkpt>
      <trkpt lat="42.777233" lon="-2.211050">
        <ele>1083.0</ele>
        <time>2013-04-13T14:51:02Z</time>
      </trkpt>
      <trkpt lat="42.777433" lon="-2.211217">
        <ele>1073.0</ele>
        <time>2013-04-13T14:51:12Z</time>
      </trkpt>
      <trkpt lat="42.777800" lon="-2.211767">
        <ele>0.0</ele>
        <time>2013-04-13T14:51:21Z</time>
      </trkpt>
      <trkpt lat="42.778300" lon="-2.212050">
        <ele>1045.0</ele>
        <time>2013-04-13T14:51:32Z</time>
      </trkpt>
      <trkpt lat="42.778600" lon="-2.213283">
        <ele>1015.0</ele>
        <time>2013-04-13T14:51:42Z</time>
      </trkpt>
      <trkpt lat="42.779300" lon="-2.213200">
        <ele>990.0</ele>
        <time>2013-04-13T14:51:52Z</time>
      </trkpt>
      <trkpt lat="42.779683" lon="-2.212900">
        <ele>973.0</ele>
        <time>2013-04-13T14:52:02Z</time>
      </trkpt>
      <trkpt lat="42.780083" lon="-2.212533">
        <ele>955.0</ele>
        <time>2013-04-13T14:52:12Z</time>
      </trkpt>
      <trkpt lat="42.780283" lon="-2.212167">
        <ele>946.0</ele>
        <time>2013-04-13T14:52:22Z</time>
      </trkpt>
      <trkpt lat="42.780467" lon="-2.211833">
        <ele>938.0</ele>
        <time>2013-04-13T14:52:32Z</time>
      </trkpt>
      <trkpt lat="42.780667" lon="-2.211350">
        <ele>930.0</ele>
        <time>2013-04-13T14:52:42Z</time>
      </trkpt>
      <trkpt lat="42.780850" lon="-2.211017">
        <ele>923.0</ele>
        <time>2013-04-13T14:52:52Z</time>
      </trkpt>
      <trkpt lat="42.780967" lon="-2.210767">
        <ele>918.0</ele>
        <time>2013-04-13T14:53:02Z</time>
      </trkpt>
      <trkpt lat="42.781067" lon="-2.210550">
        <ele>915.0</ele>
        <time>2013-04-13T14:53:12Z</time>
      </trkpt>
      <trkpt lat="42.780950" lon="-2.210383">
        <ele>915.0</ele>
        <time>2013-04-13T14:53:22Z</time>
      </trkpt>
      <trkpt lat="42.780950" lon="-2.210133">
        <ele>918.0</ele>
        <time>2013-04-13T14:53:32Z</time>
      </trkpt>
      <trkpt lat="42.781033" lon="-2.209733">
        <ele>922.0</ele>
        <time>2013-04-13T14:53:42Z</time>
      </trkpt>
      <trkpt lat="42.781133" lon="-2.209367">
        <ele>927.0</ele>
        <time>2013-04-13T14:53:52Z</time>
      </trkpt>
      <trkpt lat="42.781350" lon="-2.209017">
        <ele>932.0</ele>
        <time>2013-04-13T14:54:02Z</time>
      </trkpt>
      <trkpt lat="42.781483" lon="-2.208783">
        <ele>938.0</ele>
        <time>2013-04-13T14:54:12Z</time>
      </trkpt>
      <trkpt lat="42.781383" lon="-2.208717">
        <ele>943.0</ele>
        <time>2013-04-13T14:54:22Z</time>
      </trkpt>
      <trkpt lat="42.781150" lon="-2.209400">
        <ele>950.0</ele>
        <time>2013-04-13T14:54:32Z</time>
      </trkpt>
      <trkpt lat="42.781067" lon="-2.209633">
        <ele>956.0</ele>
        <time>2013-04-13T14:54:42Z</time>
      </trkpt>
      <trkpt lat="42.781517" lon="-2.209183">
        <ele>960.0</ele>
        <time>2013-04-13T14:54:52Z</time>
      </trkpt>
      <trkpt lat="42.781450" lon="-2.209217">
        <ele>961.0</ele>
        <time>2013-04-13T14:55:02Z</time>
      </trkpt>
      <trkpt lat="42.781900" lon="-2.210567">
        <ele>964.0</ele>
        <time>2013-04-13T14:55:12Z</time>
      </trkpt>
      <trkpt lat="42.782267" lon="-2.211983">
        <ele>966.0</ele>
        <time>2013-04-13T14:55:22Z</time>
      </trkpt>
      <trkpt lat="42.782150" lon="-2.212167">
        <ele>968.0</ele>
        <time>2013-04-13T14:55:32Z</time>
      </trkpt>
      <trkpt lat="42.781917" lon="-2.212333">
        <ele>971.0</ele>
        <time>2013-04-13T14:55:42Z</time>
      </trkpt>
      <trkpt lat="42.781467" lon="-2.212467">
        <ele>973.0</ele>
        <time>2013-04-13T14:55:52Z</time>
      </trkpt>
      <trkpt lat="42.781150" lon="-2.212433">
        <ele>977.0</ele>
        <time>2013-04-13T14:56:03Z</time>
      </trkpt>
      <trkpt lat="42.781000" lon="-2.212300">
        <ele>981.0</ele>
        <time>2013-04-13T14:56:13Z</time>
      </trkpt>
      <trkpt lat="42.780850" lon="-2.212250">
        <ele>987.0</ele>
        <time>2013-04-13T14:56:23Z</time>
      </trkpt>
      <trkpt lat="42.780883" lon="-2.211933">
        <ele>991.0</ele>
        <time>2013-04-13T14:56:33Z</time>
      </trkpt>
      <trkpt lat="42.780750" lon="-2.211900">
        <ele>995.0</ele>
        <time>2013-04-13T14:56:43Z</time>
      </trkpt>
      <trkpt lat="42.780300" lon="-2.212050">
        <ele>996.0</ele>
        <time>2013-04-13T14:56:53Z</time>
      </trkpt>
      <trkpt lat="42.779867" lon="-2.212017">
        <ele>997.0</ele>
        <time>2013-04-13T14:57:03Z</time>
      </trkpt>
      <trkpt lat="42.779400" lon="-2.211933">
        <ele>997.0</ele>
        <time>2013-04-13T14:57:13Z</time>
      </trkpt>
      <trkpt lat="42.778933" lon="-2.211817">
        <ele>996.0</ele>
        <time>2013-04-13T14:57:23Z</time>
      </trkpt>
      <trkpt lat="42.778567" lon="-2.211917">
        <ele>997.0</ele>
        <time>2013-04-13T14:57:33Z</time>
      </trkpt>
      <trkpt lat="42.778183" lon="-2.211983">
        <ele>998.0</ele>
        <time>2013-04-13T14:57:43Z</time>
      </trkpt>
      <trkpt lat="42.777933" lon="-2.212033">
        <ele>1000.0</ele>
        <time>2013-04-13T14:57:53Z</time>
      </trkpt>
      <trkpt lat="42.777533" lon="-2.212200">
        <ele>1004.0</ele>
        <time>2013-04-13T14:58:03Z</time>
      </trkpt>
      <trkpt lat="42.777300" lon="-2.212317">
        <ele>1008.0</ele>
        <time>2013-04-13T14:58:13Z</time>
      </trkpt>
      <trkpt lat="42.777000" lon="-2.212200">
        <ele>1010.0</ele>
        <time>2013-04-13T14:58:23Z</time>
      </trkpt>
      <trkpt lat="42.776567" lon="-2.212050">
        <ele>1010.0</ele>
        <time>2013-04-13T14:58:33Z</time>
      </trkpt>
      <trkpt lat="42.776300" lon="-2.211850">
        <ele>1012.0</ele>
        <time>2013-04-13T14:58:43Z</time>
      </trkpt>
      <trkpt lat="42.776117" lon="-2.211767">
        <ele>1016.0</ele>
        <time>2013-04-13T14:58:53Z</time>
      </trkpt>
      <trkpt lat="42.775917" lon="-2.211817">
        <ele>1022.0</ele>
        <time>2013-04-13T14:59:03Z</time>
      </trkpt>
      <trkpt lat="42.775750" lon="-2.211683">
        <ele>1028.0</ele>
        <time>2013-04-13T14:59:13Z</time>
      </trkpt>
      <trkpt lat="42.775533" lon="-2.211700">
        <ele>1033.0</ele>
        <time>2013-04-13T14:59:23Z</time>
      </trkpt>
      <trkpt lat="42.775250" lon="-2.211900">
        <ele>1034.0</ele>
        <time>2013-04-13T14:59:33Z</time>
      </trkpt>
      <trkpt lat="42.775467" lon="-2.212317">
        <ele>0.0</ele>
        <time>2013-04-13T14:59:42Z</time>
      </trkpt>
      <trkpt lat="42.775450" lon="-2.213517">
        <ele>1031.0</ele>
        <time>2013-04-13T14:59:53Z</time>
      </trkpt>
      <trkpt lat="42.775900" lon="-2.213317">
        <ele>1015.0</ele>
        <time>2013-04-13T15:00:03Z</time>
      </trkpt>
      <trkpt lat="42.775983" lon="-2.213100">
        <ele>992.0</ele>
        <time>2013-04-13T15:00:13Z</time>
      </trkpt>
      <trkpt lat="42.776467" lon="-2.213817">
        <ele>954.0</ele>
        <time>2013-04-13T15:00:23Z</time>
      </trkpt>
      <trkpt lat="42.776900" lon="-2.214300">
        <ele>929.0</ele>
        <time>2013-04-13T15:00:33Z</time>
      </trkpt>
      <trkpt lat="42.776900" lon="-2.215733">
        <ele>903.0</ele>
        <time>2013-04-13T15:00:43Z</time>
      </trkpt>
      <trkpt lat="42.776650" lon="-2.215917">
        <ele>890.0</ele>
        <time>2013-04-13T15:00:53Z</time>
      </trkpt>
      <trkpt lat="42.776900" lon="-2.215633">
        <ele>876.0</ele>
        <time>2013-04-13T15:01:03Z</time>
      </trkpt>
      <trkpt lat="42.777350" lon="-2.215617">
        <ele>860.0</ele>
        <time>2013-04-13T15:01:13Z</time>
      </trkpt>
      <trkpt lat="42.777200" lon="-2.217083">
        <ele>848.0</ele>
        <time>2013-04-13T15:01:23Z</time>
      </trkpt>
      <trkpt lat="42.777200" lon="-2.216950">
        <ele>844.0</ele>
        <time>2013-04-13T15:01:33Z</time>
      </trkpt>
      <trkpt lat="42.777350" lon="-2.216817">
        <ele>840.0</ele>
        <time>2013-04-13T15:01:43Z</time>
      </trkpt>
      <trkpt lat="42.777533" lon="-2.216633">
        <ele>838.0</ele>
        <time>2013-04-13T15:01:53Z</time>
      </trkpt>
      <trkpt lat="42.777533" lon="-2.216683">
        <ele>836.0</ele>
        <time>2013-04-13T15:02:03Z</time>
      </trkpt>
      <trkpt lat="42.777300" lon="-2.217150">
        <ele>833.0</ele>
        <time>2013-04-13T15:02:13Z</time>
      </trkpt>
      <trkpt lat="42.777733" lon="-2.216800">
        <ele>826.0</ele>
        <time>2013-04-13T15:02:23Z</time>
      </trkpt>
      <trkpt lat="42.777533" lon="-2.217283">
        <ele>819.0</ele>
        <time>2013-04-13T15:02:33Z</time>
      </trkpt>
      <trkpt lat="42.777200" lon="-2.217483">
        <ele>813.0</ele>
        <time>2013-04-13T15:02:43Z</time>
      </trkpt>
      <trkpt lat="42.777250" lon="-2.217433">
        <ele>807.0</ele>
        <time>2013-04-13T15:02:53Z</time>
      </trkpt>
      <trkpt lat="42.777783" lon="-2.217367">
        <ele>796.0</ele>
        <time>2013-04-13T15:03:03Z</time>
      </trkpt>
      <trkpt lat="42.777867" lon="-2.217283">
        <ele>790.0</ele>
        <time>2013-04-13T15:03:13Z</time>
      </trkpt>
      <trkpt lat="42.777800" lon="-2.217217">
        <ele>785.0</ele>
        <time>2013-04-13T15:03:23Z</time>
      </trkpt>
      <trkpt lat="42.777800" lon="-2.217117">
        <ele>779.0</ele>
        <time>2013-04-13T15:03:33Z</time>
      </trkpt>
      <trkpt lat="42.777800" lon="-2.217017">
        <ele>775.0</ele>
        <time>2013-04-13T15:03:43Z</time>
      </trkpt>
      <trkpt lat="42.777800" lon="-2.217050">
        <ele>767.0</ele>
        <time>2013-04-13T15:03:53Z</time>
      </trkpt>
      <trkpt lat="42.777783" lon="-2.217083">
        <ele>759.0</ele>
        <time>2013-04-13T15:04:03Z</time>
      </trkpt>
      <trkpt lat="42.777800" lon="-2.217100">
        <ele>755.0</ele>
        <time>2013-04-13T15:04:13Z</time>
      </trkpt>
      <trkpt lat="42.777833" lon="-2.217100">
        <ele>750.0</ele>
        <time>2013-04-13T15:04:24Z</time>
      </trkpt>
      <trkpt lat="42.777833" lon="-2.217117">
        <ele>746.0</ele>
        <time>2013-04-13T15:04:34Z</time>
      </trkpt>
    </trkseg>
  </trk>
</gpx>
